Observation data for Castolon 1NW BBNP on 11/16/2019      Previous  Date       Current Mesonet Observations  Soil Data  Daily Summary Page  Observations in Plain Language
KCA2 160600Z 30002KT 10/05 A3021 RMK A01 T00980054  RH  074%=      5-min Rain = 0
KCA2 160601Z 28002KT 10/05 A3021 RMK A01 T00970053  RH  074%=      5-min Rain = 0
KCA2 160602Z 29002KT 10/05 A3021 RMK A01 T00970054  RH  074%=      5-min Rain = 0
KCA2 160603Z 30002KT 10/05 A3021 RMK A01 T00970054  RH  075%=      5-min Rain = 0
KCA2 160604Z 30002KT 10/05 A3021 RMK A01 T00960053  RH  074%=      5-min Rain = 0
KCA2 160605Z 30002KT 10/05 A3021 RMK A01 T00970053  RH  074%=      5-min Rain = 0
KCA2 160606Z 29003KT 10/05 A3021 RMK A01 T00980053  RH  074%=      5-min Rain = 0
KCA2 160607Z 29003KT 10/05 A3021 RMK A01 T00980054  RH  074%=      5-min Rain = 0
KCA2 160608Z 29002KT 10/06 A3021 RMK A01 T00960055  RH  075%=      5-min Rain = 0
KCA2 160609Z 29002KT 09/05 A3021 RMK A01 T00940053  RH  076%=      5-min Rain = 0
KCA2 160610Z 29002KT 09/05 A3021 RMK A01 T00920053  RH  076%=      5-min Rain = 0
KCA2 160611Z 28002KT 09/05 A3021 RMK A01 T00910053  RH  077%=      5-min Rain = 0
KCA2 160612Z 27002KT 09/05 A3021 RMK A01 T00910053  RH  077%=      5-min Rain = 0
KCA2 160613Z 27002KT 09/05 A3021 RMK A01 T00910053  RH  077%=      5-min Rain = 0
KCA2 160614Z 28003KT 09/05 A3021 RMK A01 T00910053  RH  077%=      5-min Rain = 0
KCA2 160615Z 28003KT 09/05 A302 RMK A01 T00910053  RH  077%=      5-min Rain = 0
KCA2 160616Z 28004KT 09/05 A302 RMK A01 T00920054  RH  077%=      5-min Rain = 0
KCA2 160617Z 27003KT 09/05 A302 RMK A01 T00930054  RH  076%=      5-min Rain = 0
KCA2 160618Z 28002KT 09/05 A302 RMK A01 T00940054  RH  076%=      5-min Rain = 0
KCA2 160619Z 28002KT 10/05 A3021 RMK A01 T00950054  RH  076%=      5-min Rain = 0
KCA2 160620Z 29003KT 10/05 A3021 RMK A01 T00950054  RH  075%=      5-min Rain = 0
KCA2 160621Z 29004KT 10/05 A3021 RMK A01 T00960054  RH  075%=      5-min Rain = 0
KCA2 160622Z 29004KT 10/05 A3021 RMK A01 T00960054  RH  075%=      5-min Rain = 0
KCA2 160623Z 29003KT 10/05 A3021 RMK A01 T00960054  RH  075%=      5-min Rain = 0
KCA2 160624Z 28003KT 10/05 A3021 RMK A01 T00960054  RH  075%=      5-min Rain = 0
KCA2 160625Z 28003KT 10/05 A3021 RMK A01 T00960054  RH  075%=      5-min Rain = 0
KCA2 160626Z 27001KT 10/05 A3021 RMK A01 T00950054  RH  075%=      5-min Rain = 0
KCA2 160627Z 25001KT 09/05 A3021 RMK A01 T00940054  RH  076%=      5-min Rain = 0
KCA2 160628Z 29002KT 09/06 A3021 RMK A01 T00940056  RH  077%=      5-min Rain = 0
KCA2 160629Z 28002KT 09/06 A3021 RMK A01 T00920055  RH  077%=      5-min Rain = 0
KCA2 160630Z 26002KT 09/05 A3021 RMK A01 T00920054  RH  077%=      5-min Rain = 0
KCA2 160631Z 25002KT 09/06 A3021 RMK A01 T00920055  RH  078%=      5-min Rain = 0
KCA2 160632Z 25002KT 09/06 A3021 RMK A01 T00900055  RH  079%=      5-min Rain = 0
KCA2 160633Z 27002KT 09/06 A3021 RMK A01 T00890056  RH  079%=      5-min Rain = 0
KCA2 160634Z 28002KT 09/06 A3021 RMK A01 T00880055  RH  080%=      5-min Rain = 0
KCA2 160635Z 27002KT 09/06 A3021 RMK A01 T00880055  RH  080%=      5-min Rain = 0
KCA2 160636Z 29002KT 09/06 A3021 RMK A01 T00880055  RH  080%=      5-min Rain = 0
KCA2 160637Z 30002KT 09/05 A3021 RMK A01 T00870054  RH  080%=      5-min Rain = 0
KCA2 160638Z 33001KT 09/05 A3021 RMK A01 T00870054  RH  080%=      5-min Rain = 0
KCA2 160639Z 35001KT 09/06 A3021 RMK A01 T00870056  RH  081%=      5-min Rain = 0
KCA2 160640Z 35000KT 09/06 A3021 RMK A01 T00860056  RH  081%=      5-min Rain = 0
KCA2 160641Z 08000KT 09/06 A3021 RMK A01 T00860056  RH  081%=      5-min Rain = 0
KCA2 160642Z 09001KT 09/06 A3021 RMK A01 T00860056  RH  081%=      5-min Rain = 0
KCA2 160643Z 10001KT 09/06 A3021 RMK A01 T00850055  RH  082%=      5-min Rain = 0
KCA2 160644Z 10001KT 08/05 A3021 RMK A01 T00820054  RH  082%=      5-min Rain = 0
KCA2 160645Z 13001KT 08/05 A3021 RMK A01 T00820054  RH  083%=      5-min Rain = 0
KCA2 160646Z 14001KT 08/05 A3021 RMK A01 T00820054  RH  082%=      5-min Rain = 0
KCA2 160647Z 14001KT 08/05 A302 RMK A01 T00820054  RH  082%=      5-min Rain = 0
KCA2 160648Z 13001KT 08/06 A302 RMK A01 T00820055  RH  083%=      5-min Rain = 0
KCA2 160649Z 10001KT 08/06 A302 RMK A01 T00820055  RH  083%=      5-min Rain = 0
KCA2 160650Z 10002KT 08/06 A302 RMK A01 T00820055  RH  083%=      5-min Rain = 0
KCA2 160651Z 09002KT 08/06 A302 RMK A01 T00820055  RH  084%=      5-min Rain = 0
KCA2 160652Z 10002KT 08/05 A302 RMK A01 T00800054  RH  084%=      5-min Rain = 0
KCA2 160653Z 09001KT 08/05 A302 RMK A01 T00780054  RH  085%=      5-min Rain = 0
KCA2 160654Z 08001KT 08/06 A302 RMK A01 T00770055  RH  086%=      5-min Rain = 0
KCA2 160655Z 04001KT 08/06 A302 RMK A01 T00770055  RH  086%=      5-min Rain = 0
KCA2 160656Z 02001KT 08/06 A302 RMK A01 T00780056  RH  086%=      5-min Rain = 0
KCA2 160657Z 03002KT 08/06 A302 RMK A01 T00780056  RH  086%=      5-min Rain = 0
KCA2 160658Z 02002KT 08/06 A302 RMK A01 T00780056  RH  086%=      5-min Rain = 0
KCA2 160659Z 02002KT 08/06 A302 RMK A01 T00780056  RH  086%=      5-min Rain = 0
KCA2 160700Z 36002KT 08/06 A302 RMK A01 T00770056  RH  086%=      5-min Rain = 0
KCA2 160701Z 35003KT 08/06 A302 RMK A01 T00780056  RH  086%=      5-min Rain = 0
KCA2 160702Z 34003KT 08/06 A302 RMK A01 T00790056  RH  086%=      5-min Rain = 0
KCA2 160703Z 33003KT 08/06 A302 RMK A01 T00800056  RH  085%=      5-min Rain = 0
KCA2 160704Z 34002KT 08/06 A302 RMK A01 T00820056  RH  084%=      5-min Rain = 0
KCA2 160705Z 33001KT 09/06 A302 RMK A01 T00850056  RH  082%=      5-min Rain = 0
KCA2 160706Z 33001KT 09/06 A302 RMK A01 T00860056  RH  081%=      5-min Rain = 0
KCA2 160707Z 32002KT 09/06 A302 RMK A01 T00870055  RH  080%=      5-min Rain = 0
KCA2 160708Z 32002KT 09/06 A302 RMK A01 T00870055  RH  080%=      5-min Rain = 0
KCA2 160709Z 32002KT 09/06 A302 RMK A01 T00870055  RH  080%=      5-min Rain = 0
KCA2 160710Z 31002KT 09/06 A302 RMK A01 T00860055  RH  081%=      5-min Rain = 0
KCA2 160711Z 30002KT 09/06 A302 RMK A01 T00850055  RH  082%=      5-min Rain = 0
KCA2 160712Z 29001KT 08/06 A302 RMK A01 T00830055  RH  082%=      5-min Rain = 0
KCA2 160713Z 30002KT 08/05 A302 RMK A01 T00820054  RH  083%=      5-min Rain = 0
KCA2 160714Z 30002KT 08/06 A302 RMK A01 T00810055  RH  083%=      5-min Rain = 0
KCA2 160715Z 31002KT 08/05 A3019 RMK A01 T00800054  RH  084%=      5-min Rain = 0
KCA2 160716Z 31002KT 08/05 A3019 RMK A01 T00800054  RH  084%=      5-min Rain = 0
KCA2 160717Z 32002KT 08/06 A3019 RMK A01 T00800055  RH  084%=      5-min Rain = 0
KCA2 160718Z 33002KT 08/05 A3019 RMK A01 T00800054  RH  084%=      5-min Rain = 0
KCA2 160719Z 34001KT 08/05 A3019 RMK A01 T00810054  RH  083%=      5-min Rain = 0
KCA2 160720Z 33001KT 08/05 A3019 RMK A01 T00810054  RH  083%=      5-min Rain = 0
KCA2 160721Z 31002KT 08/05 A3019 RMK A01 T00820054  RH  083%=      5-min Rain = 0
KCA2 160722Z 31002KT 08/05 A3019 RMK A01 T00820054  RH  082%=      5-min Rain = 0
KCA2 160723Z 31001KT 08/05 A3019 RMK A01 T00830054  RH  082%=      5-min Rain = 0
KCA2 160724Z 31002KT 08/05 A3019 RMK A01 T00830053  RH  082%=      5-min Rain = 0
KCA2 160725Z 31002KT 08/05 A3019 RMK A01 T00830053  RH  082%=      5-min Rain = 0
KCA2 160726Z 31002KT 08/05 A3019 RMK A01 T00840054  RH  082%=      5-min Rain = 0
KCA2 160727Z 30002KT 08/05 A3019 RMK A01 T00830054  RH  082%=      5-min Rain = 0
KCA2 160728Z 30002KT 08/05 A3019 RMK A01 T00820054  RH  082%=      5-min Rain = 0
KCA2 160729Z 30002KT 08/05 A3019 RMK A01 T00810054  RH  083%=      5-min Rain = 0
KCA2 160730Z 30002KT 08/05 A3019 RMK A01 T00810054  RH  083%=      5-min Rain = 0
KCA2 160731Z 30002KT 08/05 A3019 RMK A01 T00800054  RH  083%=      5-min Rain = 0
KCA2 160732Z 30003KT 08/05 A3019 RMK A01 T00790053  RH  083%=      5-min Rain = 0
KCA2 160733Z 30003KT 08/05 A3019 RMK A01 T00780053  RH  084%=      5-min Rain = 0
KCA2 160734Z 30002KT 08/05 A3019 RMK A01 T00770052  RH  085%=      5-min Rain = 0
KCA2 160735Z 30001KT 08/05 A3019 RMK A01 T00750053  RH  085%=      5-min Rain = 0
KCA2 160736Z 30001KT 08/05 A3019 RMK A01 T00750053  RH  086%=      5-min Rain = 0
KCA2 160737Z 30001KT 08/05 A3019 RMK A01 T00760054  RH  086%=      5-min Rain = 0
KCA2 160738Z 29001KT 08/05 A3019 RMK A01 T00770054  RH  085%=      5-min Rain = 0
KCA2 160739Z 29001KT 08/05 A3019 RMK A01 T00780054  RH  085%=      5-min Rain = 0
KCA2 160740Z 29001KT 08/06 A3019 RMK A01 T00790055  RH  085%=      5-min Rain = 0
KCA2 160741Z 28001KT 08/05 A3019 RMK A01 T00790054  RH  084%=      5-min Rain = 0
KCA2 160742Z 27002KT 08/05 A3019 RMK A01 T00790054  RH  084%=      5-min Rain = 0
KCA2 160743Z 27002KT 08/05 A3019 RMK A01 T00790054  RH  084%=      5-min Rain = 0
KCA2 160744Z 27002KT 08/05 A3019 RMK A01 T00780054  RH  085%=      5-min Rain = 0
KCA2 160745Z 27002KT 08/05 A3019 RMK A01 T00770053  RH  085%=      5-min Rain = 0
KCA2 160746Z 27003KT 08/05 A3019 RMK A01 T00760053  RH  086%=      5-min Rain = 0
KCA2 160747Z 26003KT 08/05 A3019 RMK A01 T00750053  RH  086%=      5-min Rain = 0
KCA2 160748Z 26003KT 08/05 A3019 RMK A01 T00750054  RH  086%=      5-min Rain = 0
KCA2 160749Z 27003KT 08/05 A3019 RMK A01 T00750053  RH  086%=      5-min Rain = 0
KCA2 160750Z 27003KT 08/05 A3019 RMK A01 T00760053  RH  085%=      5-min Rain = 0
KCA2 160751Z 27003KT 08/05 A3019 RMK A01 T00770053  RH  085%=      5-min Rain = 0
KCA2 160752Z 28003KT 08/05 A3019 RMK A01 T00780053  RH  084%=      5-min Rain = 0
KCA2 160753Z 28003KT 08/05 A3019 RMK A01 T00780053  RH  084%=      5-min Rain = 0
KCA2 160754Z 28003KT 08/05 A3019 RMK A01 T00780052  RH  084%=      5-min Rain = 0
KCA2 160755Z 28003KT 08/05 A3019 RMK A01 T00780052  RH  084%=      5-min Rain = 0
KCA2 160756Z 28004KT 08/05 A3019 RMK A01 T00780052  RH  084%=      5-min Rain = 0
KCA2 160757Z 29003KT 08/05 A3019 RMK A01 T00780052  RH  084%=      5-min Rain = 0
KCA2 160758Z 29004KT 08/05 A3019 RMK A01 T00780052  RH  084%=      5-min Rain = 0
KCA2 160759Z 29004KT 08/05 A3019 RMK A01 T00790052  RH  083%=      5-min Rain = 0
KCA2 160800Z 29004KT 08/05 A3019 RMK A01 T00790052  RH  083%=      5-min Rain = 0
KCA2 160801Z 29003KT 08/05 A3019 RMK A01 T00800053  RH  083%=      5-min Rain = 0
KCA2 160802Z 30003KT 08/05 A3019 RMK A01 T00790053  RH  083%=      5-min Rain = 0
KCA2 160803Z 31002KT 08/05 A3019 RMK A01 T00790052  RH  083%=      5-min Rain = 0
KCA2 160804Z 32002KT 08/05 A3019 RMK A01 T00810052  RH  082%=      5-min Rain = 0
KCA2 160805Z 32001KT 08/05 A3019 RMK A01 T00820053  RH  082%=      5-min Rain = 0
KCA2 160806Z 32001KT 08/05 A3019 RMK A01 T00830053  RH  082%=      5-min Rain = 0
KCA2 160807Z 32002KT 08/05 A3019 RMK A01 T00830052  RH  081%=      5-min Rain = 0
KCA2 160808Z 32002KT 08/05 A3019 RMK A01 T00840052  RH  080%=      5-min Rain = 0
KCA2 160809Z 32001KT 08/05 A3019 RMK A01 T00840053  RH  080%=      5-min Rain = 0
KCA2 160810Z 33001KT 08/05 A3019 RMK A01 T00830052  RH  081%=      5-min Rain = 0
KCA2 160811Z 34001KT 08/05 A3019 RMK A01 T00830052  RH  081%=      5-min Rain = 0
KCA2 160812Z 34000KT 08/05 A3019 RMK A01 T00820053  RH  082%=      5-min Rain = 0
KCA2 160813Z 00000KT 08/05 A3019 RMK A01 T00780049  RH  082%=      5-min Rain = 0
KCA2 160814Z 31001KT 08/05 A3019 RMK A01 T00750049  RH  084%=      5-min Rain = 0
KCA2 160815Z 29000KT 07/05 A3019 RMK A01 T00730049  RH  085%=      5-min Rain = 0
KCA2 160816Z 33001KT 07/05 A3019 RMK A01 T00720050  RH  086%=      5-min Rain = 0
KCA2 160817Z 32001KT 07/05 A3019 RMK A01 T00720051  RH  086%=      5-min Rain = 0
KCA2 160818Z 31001KT 07/05 A3019 RMK A01 T00720051  RH  086%=      5-min Rain = 0
KCA2 160819Z 32002KT 07/05 A3019 RMK A01 T00720051  RH  087%=      5-min Rain = 0
KCA2 160820Z 32001KT 07/05 A3019 RMK A01 T00720051  RH  086%=      5-min Rain = 0
KCA2 160821Z 33001KT 07/05 A3019 RMK A01 T00720050  RH  086%=      5-min Rain = 0
KCA2 160822Z 12000KT 07/05 A3019 RMK A01 T00720051  RH  086%=      5-min Rain = 0
KCA2 160823Z 12000KT 07/05 A3019 RMK A01 T00690048  RH  086%=      5-min Rain = 0
KCA2 160824Z 29000KT 07/05 A3019 RMK A01 T00670047  RH  087%=      5-min Rain = 0
KCA2 160825Z 29000KT 07/05 A3019 RMK A01 T00660048  RH  088%=      5-min Rain = 0
KCA2 160826Z 20001KT 07/05 A3019 RMK A01 T00660048  RH  089%=      5-min Rain = 0
KCA2 160827Z 19001KT 07/05 A3019 RMK A01 T00650049  RH  089%=      5-min Rain = 0
KCA2 160828Z 18001KT 07/05 A3019 RMK A01 T00650049  RH  089%=      5-min Rain = 0
KCA2 160829Z 16001KT 07/05 A3019 RMK A01 T00660050  RH  089%=      5-min Rain = 0
KCA2 160830Z 13001KT 07/05 A3019 RMK A01 T00680051  RH  089%=      5-min Rain = 0
KCA2 160831Z 14001KT 07/05 A3019 RMK A01 T00690050  RH  088%=      5-min Rain = 0
KCA2 160832Z 16000KT 07/05 A3019 RMK A01 T00680050  RH  088%=      5-min Rain = 0
KCA2 160833Z 16000KT 07/05 A3019 RMK A01 T00680050  RH  088%=      5-min Rain = 0
KCA2 160834Z 00000KT 07/05 A3019 RMK A01 T00680050  RH  088%=      5-min Rain = 0
KCA2 160835Z 11000KT 07/05 A3018 RMK A01 T00680051  RH  089%=      5-min Rain = 0
KCA2 160836Z 10001KT 07/05 A3018 RMK A01 T00680051  RH  089%=      5-min Rain = 0
KCA2 160837Z 13000KT 07/05 A3018 RMK A01 T00680051  RH  089%=      5-min Rain = 0
KCA2 160838Z 17000KT 07/05 A3018 RMK A01 T00680051  RH  089%=      5-min Rain = 0
KCA2 160839Z 00000KT 07/05 A3018 RMK A01 T00680051  RH  089%=      5-min Rain = 0
KCA2 160840Z 00000KT 07/05 A3018 RMK A01 T00690052  RH  089%=      5-min Rain = 0
KCA2 160841Z 00000KT 07/05 A3018 RMK A01 T00700052  RH  088%=      5-min Rain = 0
KCA2 160842Z 00000KT 07/05 A3018 RMK A01 T00700051  RH  088%=      5-min Rain = 0
KCA2 160843Z 00000KT 07/05 A3018 RMK A01 T00700052  RH  088%=      5-min Rain = 0
KCA2 160844Z 18000KT 07/05 A3018 RMK A01 T00700052  RH  088%=      5-min Rain = 0
KCA2 160845Z 20001KT 07/05 A3018 RMK A01 T00700052  RH  088%=      5-min Rain = 0
KCA2 160846Z 21001KT 07/05 A3018 RMK A01 T00700053  RH  089%=      5-min Rain = 0
KCA2 160847Z 22001KT 07/05 A3018 RMK A01 T00690051  RH  088%=      5-min Rain = 0
KCA2 160848Z 23001KT 07/05 A3018 RMK A01 T00680050  RH  088%=      5-min Rain = 0
KCA2 160849Z 24001KT 07/05 A3018 RMK A01 T00670049  RH  088%=      5-min Rain = 0
KCA2 160850Z 24001KT 07/05 A3018 RMK A01 T00660049  RH  089%=      5-min Rain = 0
KCA2 160851Z 24001KT 07/05 A3018 RMK A01 T00660049  RH  089%=      5-min Rain = 0
KCA2 160852Z 25000KT 07/05 A3018 RMK A01 T00650049  RH  090%=      5-min Rain = 0
KCA2 160853Z 26001KT 07/05 A3018 RMK A01 T00650050  RH  090%=      5-min Rain = 0
KCA2 160854Z 25001KT 07/05 A3018 RMK A01 T00650050  RH  090%=      5-min Rain = 0
KCA2 160855Z 25001KT 07/05 A3018 RMK A01 T00660050  RH  090%=      5-min Rain = 0
KCA2 160856Z 27001KT 07/05 A3018 RMK A01 T00660050  RH  090%=      5-min Rain = 0
KCA2 160857Z 27001KT 07/05 A3018 RMK A01 T00660050  RH  090%=      5-min Rain = 0
KCA2 160858Z 28001KT 07/05 A3018 RMK A01 T00660049  RH  089%=      5-min Rain = 0
KCA2 160859Z 29002KT 07/05 A3018 RMK A01 T00650049  RH  089%=      5-min Rain = 0
KCA2 160900Z 30002KT 07/05 A3018 RMK A01 T00660049  RH  089%=      5-min Rain = 0
KCA2 160901Z 30002KT 07/05 A3018 RMK A01 T00670050  RH  089%=      5-min Rain = 0
KCA2 160902Z 30002KT 07/05 A3018 RMK A01 T00680050  RH  089%=      5-min Rain = 0
KCA2 160903Z 31001KT 07/05 A3018 RMK A01 T00680051  RH  089%=      5-min Rain = 0
KCA2 160904Z 31001KT 07/05 A3018 RMK A01 T00680050  RH  088%=      5-min Rain = 0
KCA2 160905Z 31001KT 07/05 A3018 RMK A01 T00680050  RH  088%=      5-min Rain = 0
KCA2 160906Z 30001KT 07/05 A3018 RMK A01 T00680050  RH  088%=      5-min Rain = 0
KCA2 160907Z 30001KT 07/05 A3018 RMK A01 T00680051  RH  089%=      5-min Rain = 0
KCA2 160908Z 30001KT 07/05 A3018 RMK A01 T00690052  RH  089%=      5-min Rain = 0
KCA2 160909Z 31000KT 07/05 A3018 RMK A01 T00680052  RH  090%=      5-min Rain = 0
KCA2 160910Z 00000KT 07/05 A3018 RMK A01 T00680052  RH  090%=      5-min Rain = 0
KCA2 160911Z 00000KT 07/05 A3018 RMK A01 T00670051  RH  089%=      5-min Rain = 0
KCA2 160912Z 00000KT 07/05 A3018 RMK A01 T00670051  RH  090%=      5-min Rain = 0
KCA2 160913Z 00000KT 07/05 A3018 RMK A01 T00670051  RH  090%=      5-min Rain = 0
KCA2 160914Z 00000KT 07/05 A3018 RMK A01 T00660051  RH  090%=      5-min Rain = 0
KCA2 160915Z 00000KT 07/05 A3018 RMK A01 T00660050  RH  089%=      5-min Rain = 0
KCA2 160916Z 00000KT 07/05 A3018 RMK A01 T00680050  RH  089%=      5-min Rain = 0
KCA2 160917Z 00000KT 07/05 A3018 RMK A01 T00690050  RH  088%=      5-min Rain = 0
KCA2 160918Z 00000KT 07/05 A3018 RMK A01 T00690050  RH  087%=      5-min Rain = 0
KCA2 160919Z 00000KT 07/05 A3018 RMK A01 T00700052  RH  088%=      5-min Rain = 0
KCA2 160920Z 31000KT 07/05 A3017 RMK A01 T00690052  RH  089%=      5-min Rain = 0
KCA2 160921Z 33001KT 07/05 A3017 RMK A01 T00700052  RH  088%=      5-min Rain = 0
KCA2 160922Z 32001KT 07/05 A3017 RMK A01 T00690050  RH  088%=      5-min Rain = 0
KCA2 160923Z 32001KT 07/05 A3017 RMK A01 T00680050  RH  088%=      5-min Rain = 0
KCA2 160924Z 35000KT 07/05 A3017 RMK A01 T00680049  RH  088%=      5-min Rain = 0
KCA2 160925Z 32000KT 07/05 A3017 RMK A01 T00670048  RH  088%=      5-min Rain = 0
KCA2 160926Z 08000KT 07/05 A3017 RMK A01 T00660047  RH  088%=      5-min Rain = 0
KCA2 160927Z 00000KT 06/05 A3017 RMK A01 T00640047  RH  089%=      5-min Rain = 0
KCA2 160928Z 00000KT 06/05 A3017 RMK A01 T00640048  RH  090%=      5-min Rain = 0
KCA2 160929Z 00000KT 06/05 A3017 RMK A01 T00630048  RH  090%=      5-min Rain = 0
KCA2 160930Z 25000KT 06/05 A3017 RMK A01 T00630049  RH  090%=      5-min Rain = 0
KCA2 160931Z 08001KT 06/05 A3017 RMK A01 T00630048  RH  090%=      5-min Rain = 0
KCA2 160932Z 07001KT 06/05 A3017 RMK A01 T00630048  RH  090%=      5-min Rain = 0
KCA2 160933Z 08000KT 06/05 A3017 RMK A01 T00630048  RH  091%=      5-min Rain = 0
KCA2 160934Z 05000KT 06/05 A3017 RMK A01 T00630049  RH  091%=      5-min Rain = 0
KCA2 160935Z 05001KT 06/05 A3017 RMK A01 T00630049  RH  091%=      5-min Rain = 0
KCA2 160936Z 04001KT 06/05 A3017 RMK A01 T00640050  RH  091%=      5-min Rain = 0
KCA2 160937Z 05001KT 07/05 A3017 RMK A01 T00650050  RH  091%=      5-min Rain = 0
KCA2 160938Z 05001KT 07/05 A3017 RMK A01 T00650050  RH  090%=      5-min Rain = 0
KCA2 160939Z 05001KT 07/05 A3017 RMK A01 T00650050  RH  090%=      5-min Rain = 0
KCA2 160940Z 04001KT 07/05 A3017 RMK A01 T00650050  RH  090%=      5-min Rain = 0
KCA2 160941Z 03000KT 07/05 A3017 RMK A01 T00650051  RH  090%=      5-min Rain = 0
KCA2 160942Z 00000KT 07/05 A3017 RMK A01 T00650050  RH  090%=      5-min Rain = 0
KCA2 160943Z 00000KT 07/05 A3017 RMK A01 T00660050  RH  090%=      5-min Rain = 0
KCA2 160944Z 00000KT 07/05 A3017 RMK A01 T00670050  RH  089%=      5-min Rain = 0
KCA2 160945Z 05000KT 07/05 A3017 RMK A01 T00680051  RH  089%=      5-min Rain = 0
KCA2 160946Z 04000KT 07/05 A3017 RMK A01 T00680051  RH  089%=      5-min Rain = 0
KCA2 160947Z 05001KT 07/05 A3017 RMK A01 T00690051  RH  088%=      5-min Rain = 0
KCA2 160948Z 03000KT 07/05 A3017 RMK A01 T00690051  RH  089%=      5-min Rain = 0
KCA2 160949Z 04000KT 07/05 A3017 RMK A01 T00690052  RH  089%=      5-min Rain = 0
KCA2 160950Z 06001KT 07/05 A3017 RMK A01 T00690052  RH  089%=      5-min Rain = 0
KCA2 160951Z 05001KT 07/05 A3017 RMK A01 T00680051  RH  089%=      5-min Rain = 0
KCA2 160952Z 04000KT 07/05 A3017 RMK A01 T00670050  RH  089%=      5-min Rain = 0
KCA2 160953Z 00000KT 07/05 A3017 RMK A01 T00660048  RH  088%=      5-min Rain = 0
KCA2 160954Z 00000KT 07/05 A3017 RMK A01 T00650047  RH  088%=      5-min Rain = 0
KCA2 160955Z 00000KT 07/05 A3017 RMK A01 T00650048  RH  089%=      5-min Rain = 0
KCA2 160956Z 07000KT 07/05 A3017 RMK A01 T00650049  RH  090%=      5-min Rain = 0
KCA2 160957Z 07001KT 07/05 A3017 RMK A01 T00650049  RH  090%=      5-min Rain = 0
KCA2 160958Z 07000KT 07/05 A3017 RMK A01 T00650049  RH  090%=      5-min Rain = 0
KCA2 160959Z 00000KT 07/05 A3017 RMK A01 T00650049  RH  090%=      5-min Rain = 0
KCA2 161000Z 00000KT 07/05 A3017 RMK A01 T00660049  RH  089%=      5-min Rain = 0
KCA2 161001Z 00000KT 07/05 A3017 RMK A01 T00660049  RH  089%=      5-min Rain = 0
KCA2 161002Z 00000KT 07/05 A3018 RMK A01 T00660050  RH  089%=      5-min Rain = 0
KCA2 161003Z 00000KT 07/05 A3018 RMK A01 T00660049  RH  089%=      5-min Rain = 0
KCA2 161004Z 00000KT 07/05 A3018 RMK A01 T00670050  RH  089%=      5-min Rain = 0
KCA2 161005Z 14000KT 07/05 A3018 RMK A01 T00670051  RH  090%=      5-min Rain = 0
KCA2 161006Z 16000KT 07/05 A3018 RMK A01 T00660052  RH  090%=      5-min Rain = 0
KCA2 161007Z 00000KT 07/05 A3018 RMK A01 T00660052  RH  091%=      5-min Rain = 0
KCA2 161008Z 00000KT 07/05 A3018 RMK A01 T00660051  RH  090%=      5-min Rain = 0
KCA2 161009Z 31000KT 07/05 A3018 RMK A01 T00650050  RH  090%=      5-min Rain = 0
KCA2 161010Z 30001KT 07/05 A3018 RMK A01 T00650050  RH  090%=      5-min Rain = 0
KCA2 161011Z 31001KT 07/05 A3018 RMK A01 T00650049  RH  090%=      5-min Rain = 0
KCA2 161012Z 30001KT 07/05 A3018 RMK A01 T00650050  RH  090%=      5-min Rain = 0
KCA2 161013Z 32000KT 07/05 A3018 RMK A01 T00650051  RH  091%=      5-min Rain = 0
KCA2 161014Z 35001KT 07/05 A3018 RMK A01 T00650051  RH  091%=      5-min Rain = 0
KCA2 161015Z 01000KT 06/05 A3018 RMK A01 T00640050  RH  091%=      5-min Rain = 0
KCA2 161016Z 02000KT 06/05 A3018 RMK A01 T00640050  RH  091%=      5-min Rain = 0
KCA2 161017Z 03000KT 06/05 A3018 RMK A01 T00630050  RH  091%=      5-min Rain = 0
KCA2 161018Z 03001KT 06/05 A3018 RMK A01 T00630050  RH  091%=      5-min Rain = 0
KCA2 161019Z 03001KT 06/05 A3018 RMK A01 T00640050  RH  091%=      5-min Rain = 0
KCA2 161020Z 05001KT 07/05 A3018 RMK A01 T00650050  RH  090%=      5-min Rain = 0
KCA2 161021Z 05001KT 07/05 A3018 RMK A01 T00660050  RH  090%=      5-min Rain = 0
KCA2 161022Z 04002KT 07/05 A3018 RMK A01 T00660049  RH  089%=      5-min Rain = 0
KCA2 161023Z 04002KT 06/05 A3018 RMK A01 T00630045  RH  088%=      5-min Rain = 0
KCA2 161024Z 04001KT 06/05 A3018 RMK A01 T00620045  RH  089%=      5-min Rain = 0
KCA2 161025Z 04002KT 06/05 A3018 RMK A01 T00610046  RH  090%=      5-min Rain = 0
KCA2 161026Z 04002KT 06/05 A3018 RMK A01 T00610047  RH  091%=      5-min Rain = 0
KCA2 161027Z 04002KT 06/05 A3018 RMK A01 T00610047  RH  091%=      5-min Rain = 0
KCA2 161028Z 04002KT 06/05 A3018 RMK A01 T00610048  RH  091%=      5-min Rain = 0
KCA2 161029Z 04002KT 06/05 A3018 RMK A01 T00610048  RH  091%=      5-min Rain = 0
KCA2 161030Z 04002KT 06/05 A3018 RMK A01 T00610049  RH  092%=      5-min Rain = 0
KCA2 161031Z 03002KT 06/05 A3018 RMK A01 T00620050  RH  092%=      5-min Rain = 0
KCA2 161032Z 03002KT 06/05 A3018 RMK A01 T00620050  RH  091%=      5-min Rain = 0
KCA2 161033Z 03002KT 06/05 A3018 RMK A01 T00630050  RH  091%=      5-min Rain = 0
KCA2 161034Z 02001KT 06/05 A3018 RMK A01 T00630049  RH  091%=      5-min Rain = 0
KCA2 161035Z 02001KT 06/05 A3018 RMK A01 T00630048  RH  090%=      5-min Rain = 0
KCA2 161036Z 02001KT 06/05 A3018 RMK A01 T00620047  RH  090%=      5-min Rain = 0
KCA2 161037Z 03001KT 06/05 A3018 RMK A01 T00610047  RH  091%=      5-min Rain = 0
KCA2 161038Z 05001KT 06/05 A3018 RMK A01 T00610047  RH  091%=      5-min Rain = 0
KCA2 161039Z 05001KT 06/05 A3018 RMK A01 T00610048  RH  092%=      5-min Rain = 0
KCA2 161040Z 03001KT 06/05 A3018 RMK A01 T00610049  RH  092%=      5-min Rain = 0
KCA2 161041Z 03000KT 06/05 A3018 RMK A01 T00610049  RH  092%=      5-min Rain = 0
KCA2 161042Z 00000KT 06/05 A3018 RMK A01 T00610049  RH  093%=      5-min Rain = 0
KCA2 161043Z 00000KT 06/05 A3018 RMK A01 T00600049  RH  092%=      5-min Rain = 0
KCA2 161044Z 00000KT 06/05 A3018 RMK A01 T00600048  RH  092%=      5-min Rain = 0
KCA2 161045Z 00000KT 06/04 A3018 RMK A01 T00570043  RH  091%=      5-min Rain = 0
KCA2 161046Z 00000KT 06/04 A3018 RMK A01 T00550041  RH  090%=      5-min Rain = 0
KCA2 161047Z 00000KT 05/04 A3018 RMK A01 T00540041  RH  091%=      5-min Rain = 0
KCA2 161048Z 00000KT 05/04 A3018 RMK A01 T00540042  RH  092%=      5-min Rain = 0
KCA2 161049Z 24000KT 05/04 A3018 RMK A01 T00540043  RH  093%=      5-min Rain = 0
KCA2 161050Z 23001KT 05/04 A3018 RMK A01 T00540043  RH  093%=      5-min Rain = 0
KCA2 161051Z 24001KT 05/04 A3018 RMK A01 T00540044  RH  093%=      5-min Rain = 0
KCA2 161052Z 23001KT 05/05 A3018 RMK A01 T00540045  RH  094%=      5-min Rain = 0
KCA2 161053Z 23002KT 05/05 A3018 RMK A01 T00540046  RH  094%=      5-min Rain = 0
KCA2 161054Z 23002KT 06/05 A3018 RMK A01 T00550046  RH  094%=      5-min Rain = 0
KCA2 161055Z 23002KT 06/05 A3018 RMK A01 T00560047  RH  094%=      5-min Rain = 0
KCA2 161056Z 24002KT 06/05 A3018 RMK A01 T00560048  RH  094%=      5-min Rain = 0
KCA2 161057Z 24001KT 06/05 A3018 RMK A01 T00560047  RH  094%=      5-min Rain = 0
KCA2 161058Z 25002KT 06/05 A3018 RMK A01 T00570047  RH  094%=      5-min Rain = 0
KCA2 161059Z 26002KT 06/05 A3018 RMK A01 T00570047  RH  094%=      5-min Rain = 0
KCA2 161100Z 27002KT 06/05 A3018 RMK A01 T00580048  RH  093%=      5-min Rain = 0
KCA2 161101Z 27002KT 06/05 A3018 RMK A01 T00580048  RH  093%=      5-min Rain = 0
KCA2 161102Z 28002KT 06/05 A3018 RMK A01 T00590048  RH  093%=      5-min Rain = 0
KCA2 161103Z 28002KT 06/05 A3018 RMK A01 T00590048  RH  093%=      5-min Rain = 0
KCA2 161104Z 29002KT 06/05 A3018 RMK A01 T00590048  RH  093%=      5-min Rain = 0
KCA2 161105Z 29002KT 06/05 A3018 RMK A01 T00590048  RH  092%=      5-min Rain = 0
KCA2 161106Z 30002KT 06/05 A3018 RMK A01 T00600048  RH  092%=      5-min Rain = 0
KCA2 161107Z 30002KT 06/05 A3018 RMK A01 T00610049  RH  092%=      5-min Rain = 0
KCA2 161108Z 30002KT 06/05 A3018 RMK A01 T00610049  RH  092%=      5-min Rain = 0
KCA2 161109Z 30002KT 06/05 A3018 RMK A01 T00610049  RH  092%=      5-min Rain = 0
KCA2 161110Z 30001KT 06/05 A3018 RMK A01 T00610049  RH  092%=      5-min Rain = 0
KCA2 161111Z 30001KT 06/05 A3018 RMK A01 T00610048  RH  092%=      5-min Rain = 0
KCA2 161112Z 30001KT 06/05 A3018 RMK A01 T00610048  RH  091%=      5-min Rain = 0
KCA2 161113Z 30001KT 06/05 A3018 RMK A01 T00610048  RH  091%=      5-min Rain = 0
KCA2 161114Z 30001KT 06/05 A3018 RMK A01 T00610048  RH  091%=      5-min Rain = 0
KCA2 161115Z 31001KT 06/05 A3018 RMK A01 T00610047  RH  091%=      5-min Rain = 0
KCA2 161116Z 31001KT 06/05 A3018 RMK A01 T00590045  RH  091%=      5-min Rain = 0
KCA2 161117Z 31001KT 06/05 A3018 RMK A01 T00580045  RH  092%=      5-min Rain = 0
KCA2 161118Z 30002KT 06/05 A3018 RMK A01 T00580046  RH  092%=      5-min Rain = 0
KCA2 161119Z 30002KT 06/05 A3018 RMK A01 T00580046  RH  092%=      5-min Rain = 0
KCA2 161120Z 30002KT 06/05 A3018 RMK A01 T00580046  RH  092%=      5-min Rain = 0
KCA2 161121Z 30002KT 06/05 A3018 RMK A01 T00560045  RH  092%=      5-min Rain = 0
KCA2 161122Z 31002KT 06/04 A3018 RMK A01 T00560044  RH  092%=      5-min Rain = 0
KCA2 161123Z 31002KT 06/05 A3018 RMK A01 T00560045  RH  093%=      5-min Rain = 0
KCA2 161124Z 30002KT 06/05 A3018 RMK A01 T00560045  RH  093%=      5-min Rain = 0
KCA2 161125Z 29002KT 06/05 A3018 RMK A01 T00560046  RH  093%=      5-min Rain = 0
KCA2 161126Z 30002KT 06/05 A3018 RMK A01 T00560046  RH  093%=      5-min Rain = 0
KCA2 161127Z 30002KT 06/05 A3018 RMK A01 T00560047  RH  094%=      5-min Rain = 0
KCA2 161128Z 29002KT 06/05 A3018 RMK A01 T00570047  RH  093%=      5-min Rain = 0
KCA2 161129Z 29001KT 06/05 A3018 RMK A01 T00580048  RH  093%=      5-min Rain = 0
KCA2 161130Z 29001KT 06/05 A3018 RMK A01 T00580048  RH  093%=      5-min Rain = 0
KCA2 161131Z 28001KT 06/05 A3018 RMK A01 T00580047  RH  093%=      5-min Rain = 0
KCA2 161132Z 28001KT 06/05 A3018 RMK A01 T00580048  RH  093%=      5-min Rain = 0
KCA2 161133Z 28001KT 06/05 A3018 RMK A01 T00580048  RH  093%=      5-min Rain = 0
KCA2 161134Z 29001KT 06/05 A3018 RMK A01 T00590048  RH  093%=      5-min Rain = 0
KCA2 161135Z 30001KT 06/05 A3018 RMK A01 T00590048  RH  093%=      5-min Rain = 0
KCA2 161136Z 30000KT 06/05 A3018 RMK A01 T00590049  RH  093%=      5-min Rain = 0
KCA2 161137Z 00000KT 06/05 A3018 RMK A01 T00590049  RH  093%=      5-min Rain = 0
KCA2 161138Z 30000KT 06/05 A3018 RMK A01 T00590048  RH  093%=      5-min Rain = 0
KCA2 161139Z 29001KT 06/05 A3018 RMK A01 T00590048  RH  093%=      5-min Rain = 0
KCA2 161140Z 30001KT 06/05 A3018 RMK A01 T00590048  RH  093%=      5-min Rain = 0
KCA2 161141Z 30001KT 06/05 A3018 RMK A01 T00600049  RH  092%=      5-min Rain = 0
KCA2 161142Z 30001KT 06/05 A3018 RMK A01 T00610049  RH  092%=      5-min Rain = 0
KCA2 161143Z 30001KT 06/05 A3018 RMK A01 T00620049  RH  091%=      5-min Rain = 0
KCA2 161144Z 30001KT 06/05 A3018 RMK A01 T00640049  RH  090%=      5-min Rain = 0
KCA2 161145Z 30001KT 06/05 A3018 RMK A01 T00640050  RH  090%=      5-min Rain = 0
KCA2 161146Z 30001KT 07/05 A3018 RMK A01 T00650049  RH  090%=      5-min Rain = 0
KCA2 161147Z 31000KT 06/05 A3018 RMK A01 T00620046  RH  089%=      5-min Rain = 0
KCA2 161148Z 00000KT 06/05 A3018 RMK A01 T00600045  RH  090%=      5-min Rain = 0
KCA2 161149Z 00000KT 06/05 A3018 RMK A01 T00590046  RH  091%=      5-min Rain = 0
KCA2 161150Z 00000KT 06/05 A3018 RMK A01 T00590046  RH  092%=      5-min Rain = 0
KCA2 161151Z 00000KT 06/05 A3018 RMK A01 T00580046  RH  092%=      5-min Rain = 0
KCA2 161152Z 31000KT 06/05 A3018 RMK A01 T00580046  RH  092%=      5-min Rain = 0
KCA2 161153Z 31001KT 06/05 A3018 RMK A01 T00580046  RH  092%=      5-min Rain = 0
KCA2 161154Z 31001KT 06/05 A3018 RMK A01 T00570046  RH  093%=      5-min Rain = 0
KCA2 161155Z 31000KT 06/05 A3018 RMK A01 T00570047  RH  093%=      5-min Rain = 0
KCA2 161156Z 00000KT 06/05 A3018 RMK A01 T00580048  RH  093%=      5-min Rain = 0
KCA2 161157Z 05000KT 06/05 A3018 RMK A01 T00590048  RH  093%=      5-min Rain = 0
KCA2 161158Z 05001KT 06/05 A3018 RMK A01 T00580046  RH  092%=      5-min Rain = 0
KCA2 161159Z 06002KT 06/05 A3018 RMK A01 T00570046  RH  092%=      5-min Rain = 0
KCA2 161200Z 07002KT 06/05 A3018 RMK A01 T00560045  RH  093%=      5-min Rain = 0
KCA2 161201Z 06003KT 06/04 A3018 RMK A01 T00550044  RH  093%=      5-min Rain = 0
KCA2 161202Z 06003KT 06/04 A3018 RMK A01 T00550044  RH  093%=      5-min Rain = 0
KCA2 161203Z 05003KT 06/05 A3018 RMK A01 T00550045  RH  094%=      5-min Rain = 0
KCA2 161204Z 05003KT 06/05 A3018 RMK A01 T00550045  RH  094%=      5-min Rain = 0
KCA2 161205Z 04003KT 06/05 A3018 RMK A01 T00550046  RH  094%=      5-min Rain = 0
KCA2 161206Z 04003KT 06/05 A3018 RMK A01 T00560046  RH  094%=      5-min Rain = 0
KCA2 161207Z 04003KT 06/05 A3018 RMK A01 T00560046  RH  093%=      5-min Rain = 0
KCA2 161208Z 04002KT 06/05 A3018 RMK A01 T00570047  RH  093%=      5-min Rain = 0
KCA2 161209Z 04003KT 06/05 A3018 RMK A01 T00570047  RH  093%=      5-min Rain = 0
KCA2 161210Z 04003KT 06/05 A3018 RMK A01 T00570047  RH  093%=      5-min Rain = 0
KCA2 161211Z 04003KT 06/05 A3018 RMK A01 T00570047  RH  093%=      5-min Rain = 0
KCA2 161212Z 04002KT 06/05 A3019 RMK A01 T00580047  RH  093%=      5-min Rain = 0
KCA2 161213Z 03002KT 06/05 A3019 RMK A01 T00580047  RH  093%=      5-min Rain = 0
KCA2 161214Z 03002KT 06/05 A3019 RMK A01 T00590048  RH  093%=      5-min Rain = 0
KCA2 161215Z 03002KT 06/05 A3019 RMK A01 T00590048  RH  092%=      5-min Rain = 0
KCA2 161216Z 03001KT 06/05 A3018 RMK A01 T00600048  RH  092%=      5-min Rain = 0
KCA2 161217Z 03001KT 06/05 A3018 RMK A01 T00600048  RH  092%=      5-min Rain = 0
KCA2 161218Z 02001KT 06/05 A3018 RMK A01 T00600048  RH  092%=      5-min Rain = 0
KCA2 161219Z 02001KT 06/05 A3018 RMK A01 T00600048  RH  092%=      5-min Rain = 0
KCA2 161220Z 00001KT 06/05 A3018 RMK A01 T00610049  RH  092%=      5-min Rain = 0
KCA2 161221Z 34000KT 06/05 A3018 RMK A01 T00610048  RH  091%=      5-min Rain = 0
KCA2 161222Z 33000KT 06/05 A3018 RMK A01 T00620048  RH  091%=      5-min Rain = 0
KCA2 161223Z 00000KT 06/05 A3018 RMK A01 T00620048  RH  091%=      5-min Rain = 0
KCA2 161224Z 30000KT 06/05 A3018 RMK A01 T00620048  RH  091%=      5-min Rain = 0
KCA2 161225Z 29001KT 06/05 A3018 RMK A01 T00620048  RH  091%=      5-min Rain = 0
KCA2 161226Z 29001KT 06/05 A3018 RMK A01 T00620048  RH  091%=      5-min Rain = 0
KCA2 161227Z 29000KT 06/05 A3018 RMK A01 T00620049  RH  091%=      5-min Rain = 0
KCA2 161228Z 00000KT 06/05 A3018 RMK A01 T00620049  RH  092%=      5-min Rain = 0
KCA2 161229Z 29000KT 06/05 A3018 RMK A01 T00610050  RH  092%=      5-min Rain = 0
KCA2 161230Z 00000KT 06/05 A3018 RMK A01 T00610049  RH  092%=      5-min Rain = 0
KCA2 161231Z 00000KT 06/05 A3018 RMK A01 T00600048  RH  092%=      5-min Rain = 0
KCA2 161232Z 00000KT 06/05 A3018 RMK A01 T00600048  RH  092%=      5-min Rain = 0
KCA2 161233Z 06000KT 06/05 A3018 RMK A01 T00610048  RH  091%=      5-min Rain = 0
KCA2 161234Z 07000KT 06/05 A3018 RMK A01 T00610048  RH  091%=      5-min Rain = 0
KCA2 161235Z 06000KT 06/05 A3018 RMK A01 T00620048  RH  091%=      5-min Rain = 0
KCA2 161236Z 00000KT 06/05 A3018 RMK A01 T00620048  RH  091%=      5-min Rain = 0
KCA2 161237Z 00000KT 06/05 A3018 RMK A01 T00610048  RH  091%=      5-min Rain = 0
KCA2 161238Z 00000KT 06/05 A3018 RMK A01 T00620048  RH  091%=      5-min Rain = 0
KCA2 161239Z 00000KT 06/05 A3018 RMK A01 T00610048  RH  091%=      5-min Rain = 0
KCA2 161240Z 12000KT 06/05 A3018 RMK A01 T00620048  RH  091%=      5-min Rain = 0
KCA2 161241Z 23001KT 06/05 A3018 RMK A01 T00620048  RH  091%=      5-min Rain = 0
KCA2 161242Z 23001KT 06/05 A3018 RMK A01 T00610048  RH  091%=      5-min Rain = 0
KCA2 161243Z 23000KT 06/05 A3018 RMK A01 T00600048  RH  092%=      5-min Rain = 0
KCA2 161244Z 23000KT 06/05 A3018 RMK A01 T00600047  RH  092%=      5-min Rain = 0
KCA2 161245Z 00000KT 06/05 A3018 RMK A01 T00590047  RH  092%=      5-min Rain = 0
KCA2 161246Z 00000KT 06/05 A3018 RMK A01 T00590047  RH  092%=      5-min Rain = 0
KCA2 161247Z 00000KT 06/05 A3018 RMK A01 T00590047  RH  092%=      5-min Rain = 0
KCA2 161248Z 00000KT 06/05 A3018 RMK A01 T00590047  RH  092%=      5-min Rain = 0
KCA2 161249Z 00000KT 06/05 A3018 RMK A01 T00590047  RH  092%=      5-min Rain = 0
KCA2 161250Z 00000KT 06/05 A3018 RMK A01 T00600047  RH  091%=      5-min Rain = 0
KCA2 161251Z 00000KT 06/05 A3018 RMK A01 T00600047  RH  091%=      5-min Rain = 0
KCA2 161252Z 00000KT 06/05 A3018 RMK A01 T00610048  RH  091%=      5-min Rain = 0
KCA2 161253Z 00000KT 06/05 A3018 RMK A01 T00600048  RH  092%=      5-min Rain = 0
KCA2 161254Z 00000KT 06/05 A3018 RMK A01 T00600047  RH  091%=      5-min Rain = 0
KCA2 161255Z 00000KT 06/05 A3018 RMK A01 T00590046  RH  091%=      5-min Rain = 0
KCA2 161256Z 00000KT 06/05 A3018 RMK A01 T00580045  RH  091%=      5-min Rain = 0
KCA2 161257Z 00000KT 06/05 A3018 RMK A01 T00580045  RH  092%=      5-min Rain = 0
KCA2 161258Z 00000KT 06/05 A3018 RMK A01 T00570045  RH  092%=      5-min Rain = 0
KCA2 161259Z 00000KT 06/05 A3018 RMK A01 T00570046  RH  092%=      5-min Rain = 0
KCA2 161300Z 00000KT 06/05 A3018 RMK A01 T00570047  RH  093%=      5-min Rain = 0
KCA2 161301Z 00000KT 06/05 A3018 RMK A01 T00570046  RH  093%=      5-min Rain = 0
KCA2 161302Z 00000KT 06/05 A3018 RMK A01 T00570046  RH  093%=      5-min Rain = 0
KCA2 161303Z 00000KT 06/05 A3018 RMK A01 T00560047  RH  093%=      5-min Rain = 0
KCA2 161304Z 18001KT 06/05 A3018 RMK A01 T00560047  RH  094%=      5-min Rain = 0
KCA2 161305Z 18001KT 06/05 A3018 RMK A01 T00550046  RH  094%=      5-min Rain = 0
KCA2 161306Z 18001KT 06/05 A3018 RMK A01 T00550046  RH  094%=      5-min Rain = 0
KCA2 161307Z 18000KT 05/05 A3018 RMK A01 T00540045  RH  094%=      5-min Rain = 0
KCA2 161308Z 00000KT 05/05 A3018 RMK A01 T00540045  RH  094%=      5-min Rain = 0
KCA2 161309Z 00000KT 05/05 A3018 RMK A01 T00540045  RH  094%=      5-min Rain = 0
KCA2 161310Z 00000KT 05/05 A3018 RMK A01 T00540045  RH  094%=      5-min Rain = 0
KCA2 161311Z 00000KT 05/05 A3018 RMK A01 T00540046  RH  094%=      5-min Rain = 0
KCA2 161312Z 00000KT 05/05 A3018 RMK A01 T00540046  RH  095%=      5-min Rain = 0
KCA2 161313Z 00000KT 06/05 A3018 RMK A01 T00550047  RH  095%=      5-min Rain = 0
KCA2 161314Z 00000KT 06/05 A3018 RMK A01 T00550048  RH  095%=      5-min Rain = 0
KCA2 161315Z 00000KT 06/05 A3018 RMK A01 T00550047  RH  095%=      5-min Rain = 0
KCA2 161316Z 00000KT 06/05 A3018 RMK A01 T00550048  RH  095%=      5-min Rain = 0
KCA2 161317Z 00000KT 06/05 A3018 RMK A01 T00560048  RH  095%=      5-min Rain = 0
KCA2 161318Z 00000KT 06/05 A3018 RMK A01 T00560048  RH  095%=      5-min Rain = 0
KCA2 161319Z 00000KT 06/05 A3018 RMK A01 T00560049  RH  095%=      5-min Rain = 0
KCA2 161320Z 09000KT 06/05 A3018 RMK A01 T00570049  RH  095%=      5-min Rain = 0
KCA2 161321Z 09001KT 06/05 A3018 RMK A01 T00560048  RH  094%=      5-min Rain = 0
KCA2 161322Z 09000KT 06/05 A3018 RMK A01 T00560046  RH  094%=      5-min Rain = 0
KCA2 161323Z 00000KT 06/05 A3018 RMK A01 T00550046  RH  094%=      5-min Rain = 0
KCA2 161324Z 00000KT 06/05 A3018 RMK A01 T00550045  RH  094%=      5-min Rain = 0
KCA2 161325Z 00000KT 06/05 A3018 RMK A01 T00550046  RH  094%=      5-min Rain = 0
KCA2 161326Z 00000KT 06/05 A3018 RMK A01 T00550046  RH  094%=      5-min Rain = 0
KCA2 161327Z 00000KT 06/05 A3018 RMK A01 T00550046  RH  094%=      5-min Rain = 0
KCA2 161328Z 00000KT 06/05 A3018 RMK A01 T00550046  RH  094%=      5-min Rain = 0
KCA2 161329Z 00000KT 06/05 A3018 RMK A01 T00550046  RH  094%=      5-min Rain = 0
KCA2 161330Z 00000KT 05/05 A3018 RMK A01 T00540045  RH  094%=      5-min Rain = 0
KCA2 161331Z 30001KT 05/05 A3018 RMK A01 T00540045  RH  094%=      5-min Rain = 0
KCA2 161332Z 30002KT 05/05 A3018 RMK A01 T00540045  RH  094%=      5-min Rain = 0
KCA2 161333Z 29003KT 05/04 A3018 RMK A01 T00530043  RH  093%=      5-min Rain = 0
KCA2 161334Z 30003KT 05/04 A3019 RMK A01 T00520043  RH  094%=      5-min Rain = 0
KCA2 161335Z 30003KT 05/04 A3019 RMK A01 T00520043  RH  094%=      5-min Rain = 0
KCA2 161336Z 30004KT 05/04 A3019 RMK A01 T00520043  RH  094%=      5-min Rain = 0
KCA2 161337Z 30004KT 05/04 A3019 RMK A01 T00510044  RH  095%=      5-min Rain = 0
KCA2 161338Z 31003KT 05/05 A3019 RMK A01 T00520045  RH  095%=      5-min Rain = 0
KCA2 161339Z 31003KT 05/05 A3019 RMK A01 T00530046  RH  095%=      5-min Rain = 0
KCA2 161340Z 31002KT 05/05 A3019 RMK A01 T00540048  RH  096%=      5-min Rain = 0
KCA2 161341Z 31002KT 06/05 A3019 RMK A01 T00560049  RH  096%=      5-min Rain = 0
KCA2 161342Z 30002KT 06/05 A3019 RMK A01 T00570050  RH  095%=      5-min Rain = 0
KCA2 161343Z 30002KT 06/05 A3019 RMK A01 T00580050  RH  095%=      5-min Rain = 0
KCA2 161344Z 30002KT 06/05 A3019 RMK A01 T00590050  RH  094%=      5-min Rain = 0
KCA2 161345Z 29001KT 06/05 A3019 RMK A01 T00590050  RH  094%=      5-min Rain = 0
KCA2 161346Z 29001KT 06/05 A3019 RMK A01 T00600050  RH  094%=      5-min Rain = 0
KCA2 161347Z 29001KT 06/05 A3019 RMK A01 T00600050  RH  093%=      5-min Rain = 0
KCA2 161348Z 29001KT 06/05 A3019 RMK A01 T00600050  RH  093%=      5-min Rain = 0
KCA2 161349Z 31000KT 06/05 A3019 RMK A01 T00610050  RH  093%=      5-min Rain = 0
KCA2 161350Z 00000KT 06/05 A3019 RMK A01 T00620050  RH  093%=      5-min Rain = 0
KCA2 161351Z 25000KT 06/05 A3019 RMK A01 T00620051  RH  093%=      5-min Rain = 0
KCA2 161352Z 25001KT 06/05 A3019 RMK A01 T00620051  RH  093%=      5-min Rain = 0
KCA2 161353Z 25001KT 06/05 A3019 RMK A01 T00620051  RH  092%=      5-min Rain = 0
KCA2 161354Z 24000KT 06/05 A3019 RMK A01 T00620051  RH  092%=      5-min Rain = 0
KCA2 161355Z 23000KT 06/05 A3019 RMK A01 T00620050  RH  092%=      5-min Rain = 0
KCA2 161356Z 16000KT 06/05 A3019 RMK A01 T00620050  RH  092%=      5-min Rain = 0
KCA2 161357Z 13001KT 06/05 A3019 RMK A01 T00610048  RH  092%=      5-min Rain = 0
KCA2 161358Z 13001KT 06/05 A3019 RMK A01 T00590046  RH  092%=      5-min Rain = 0
KCA2 161359Z 11001KT 06/05 A3019 RMK A01 T00570045  RH  092%=      5-min Rain = 0
KCA2 161400Z 10001KT 06/05 A3019 RMK A01 T00570045  RH  092%=      5-min Rain = 0
KCA2 161401Z 10001KT 06/05 A3019 RMK A01 T00570046  RH  093%=      5-min Rain = 0
KCA2 161402Z 10000KT 06/05 A3019 RMK A01 T00560046  RH  093%=      5-min Rain = 0
KCA2 161403Z 00000KT 06/05 A3019 RMK A01 T00560045  RH  093%=      5-min Rain = 0
KCA2 161404Z 00000KT 06/05 A3019 RMK A01 T00570046  RH  093%=      5-min Rain = 0
KCA2 161405Z 00000KT 06/05 A3019 RMK A01 T00570046  RH  093%=      5-min Rain = 0
KCA2 161406Z 32001KT 06/05 A3019 RMK A01 T00580047  RH  093%=      5-min Rain = 0
KCA2 161407Z 33001KT 06/05 A3019 RMK A01 T00590048  RH  093%=      5-min Rain = 0
KCA2 161408Z 34001KT 06/05 A3019 RMK A01 T00590049  RH  093%=      5-min Rain = 0
KCA2 161409Z 35001KT 06/05 A3019 RMK A01 T00600050  RH  093%=      5-min Rain = 0
KCA2 161410Z 35001KT 06/05 A3019 RMK A01 T00610050  RH  093%=      5-min Rain = 0
KCA2 161411Z 35002KT 06/05 A3019 RMK A01 T00610049  RH  092%=      5-min Rain = 0
KCA2 161412Z 34002KT 06/05 A3019 RMK A01 T00610050  RH  092%=      5-min Rain = 0
KCA2 161413Z 35002KT 06/05 A3019 RMK A01 T00620050  RH  092%=      5-min Rain = 0
KCA2 161414Z 35002KT 06/05 A3019 RMK A01 T00630051  RH  092%=      5-min Rain = 0
KCA2 161415Z 35002KT 06/05 A3019 RMK A01 T00640052  RH  092%=      5-min Rain = 0
KCA2 161416Z 35002KT 07/05 A3019 RMK A01 T00650053  RH  092%=      5-min Rain = 0
KCA2 161417Z 35001KT 07/05 A3019 RMK A01 T00650053  RH  092%=      5-min Rain = 0
KCA2 161418Z 36001KT 07/05 A3019 RMK A01 T00660052  RH  091%=      5-min Rain = 0
KCA2 161419Z 01001KT 07/05 A3019 RMK A01 T00670053  RH  091%=      5-min Rain = 0
KCA2 161420Z 00001KT 07/05 A3019 RMK A01 T00680053  RH  090%=      5-min Rain = 0
KCA2 161421Z 36001KT 07/05 A3019 RMK A01 T00690053  RH  090%=      5-min Rain = 0
KCA2 161422Z 34001KT 07/05 A3019 RMK A01 T00700054  RH  089%=      5-min Rain = 0
KCA2 161423Z 33001KT 07/05 A3019 RMK A01 T00710053  RH  089%=      5-min Rain = 0
KCA2 161424Z 33001KT 07/05 A3019 RMK A01 T00710052  RH  088%=      5-min Rain = 0
KCA2 161425Z 31001KT 07/05 A3019 RMK A01 T00710053  RH  088%=      5-min Rain = 0
KCA2 161426Z 32001KT 07/06 A3019 RMK A01 T00720055  RH  089%=      5-min Rain = 0
KCA2 161427Z 32001KT 07/06 A3019 RMK A01 T00720056  RH  089%=      5-min Rain = 0
KCA2 161428Z 32001KT 07/06 A3019 RMK A01 T00720056  RH  089%=      5-min Rain = 0
KCA2 161429Z 32001KT 07/06 A3019 RMK A01 T00730056  RH  089%=      5-min Rain = 0
KCA2 161430Z 32001KT 07/05 A3019 RMK A01 T00730053  RH  087%=      5-min Rain = 0
KCA2 161431Z 33001KT 07/05 A3019 RMK A01 T00740053  RH  087%=      5-min Rain = 0
KCA2 161432Z 33001KT 07/05 A3019 RMK A01 T00740054  RH  087%=      5-min Rain = 0
KCA2 161433Z 34001KT 08/05 A3019 RMK A01 T00750053  RH  086%=      5-min Rain = 0
KCA2 161434Z 35001KT 08/05 A3019 RMK A01 T00750050  RH  084%=      5-min Rain = 0
KCA2 161435Z 34001KT 08/05 A3019 RMK A01 T00760050  RH  084%=      5-min Rain = 0
KCA2 161436Z 32001KT 08/05 A3019 RMK A01 T00760049  RH  083%=      5-min Rain = 0
KCA2 161437Z 32001KT 08/05 A3019 RMK A01 T00770052  RH  084%=      5-min Rain = 0
KCA2 161438Z 32000KT 08/05 A3019 RMK A01 T00780052  RH  083%=      5-min Rain = 0
KCA2 161439Z 00000KT 08/05 A3019 RMK A01 T00790052  RH  083%=      5-min Rain = 0
KCA2 161440Z 00000KT 08/05 A3019 RMK A01 T00810051  RH  081%=      5-min Rain = 0
KCA2 161441Z 00000KT 08/05 A3019 RMK A01 T00810047  RH  079%=      5-min Rain = 0
KCA2 161442Z 00000KT 08/05 A3019 RMK A01 T00820047  RH  079%=      5-min Rain = 0
KCA2 161443Z 00000KT 08/05 A3019 RMK A01 T00820048  RH  079%=      5-min Rain = 0
KCA2 161444Z 00000KT 08/05 A3019 RMK A01 T00830047  RH  078%=      5-min Rain = 0
KCA2 161445Z 00000KT 08/05 A3019 RMK A01 T00840047  RH  078%=      5-min Rain = 0
KCA2 161446Z 00000KT 09/05 A3019 RMK A01 T00850048  RH  077%=      5-min Rain = 0
KCA2 161447Z 00000KT 09/05 A3019 RMK A01 T00850047  RH  077%=      5-min Rain = 0
KCA2 161448Z 00000KT 09/05 A3019 RMK A01 T00860049  RH  077%=      5-min Rain = 0
KCA2 161449Z 15000KT 09/05 A3019 RMK A01 T00880052  RH  078%=      5-min Rain = 0
KCA2 161450Z 16000KT 09/05 A3019 RMK A01 T00890052  RH  078%=      5-min Rain = 0
KCA2 161451Z 15000KT 09/05 A3019 RMK A01 T00890053  RH  078%=      5-min Rain = 0
KCA2 161452Z 19000KT 09/05 A3019 RMK A01 T00890054  RH  079%=      5-min Rain = 0
KCA2 161453Z 23001KT 09/05 A3019 RMK A01 T00880053  RH  079%=      5-min Rain = 0
KCA2 161454Z 25001KT 09/05 A3019 RMK A01 T00880054  RH  080%=      5-min Rain = 0
KCA2 161455Z 25001KT 09/05 A3019 RMK A01 T00880053  RH  079%=      5-min Rain = 0
KCA2 161456Z 25002KT 09/05 A3019 RMK A01 T00870052  RH  078%=      5-min Rain = 0
KCA2 161457Z 26001KT 09/05 A3019 RMK A01 T00870052  RH  079%=      5-min Rain = 0
KCA2 161458Z 26001KT 09/05 A3019 RMK A01 T00870053  RH  079%=      5-min Rain = 0
KCA2 161459Z 25002KT 09/05 A3019 RMK A01 T00880054  RH  080%=      5-min Rain = 0
KCA2 161500Z 24002KT 09/06 A3019 RMK A01 T00870056  RH  081%=      5-min Rain = 0
KCA2 161501Z 24002KT 09/06 A3019 RMK A01 T00870057  RH  081%=      5-min Rain = 0
KCA2 161502Z 24002KT 09/06 A3019 RMK A01 T00860056  RH  081%=      5-min Rain = 0
KCA2 161503Z 24001KT 09/06 A3019 RMK A01 T00860056  RH  081%=      5-min Rain = 0
KCA2 161504Z 23001KT 09/06 A3019 RMK A01 T00870055  RH  080%=      5-min Rain = 0
KCA2 161505Z 24001KT 09/06 A3019 RMK A01 T00870055  RH  080%=      5-min Rain = 0
KCA2 161506Z 24001KT 09/05 A3019 RMK A01 T00880054  RH  079%=      5-min Rain = 0
KCA2 161507Z 26001KT 09/05 A3019 RMK A01 T00890054  RH  079%=      5-min Rain = 0
KCA2 161508Z 27000KT 09/05 A3019 RMK A01 T00890052  RH  078%=      5-min Rain = 0
KCA2 161509Z 24001KT 09/05 A3019 RMK A01 T00900053  RH  078%=      5-min Rain = 0
KCA2 161510Z 25002KT 09/06 A3019 RMK A01 T00910055  RH  078%=      5-min Rain = 0
KCA2 161511Z 25002KT 09/06 A3019 RMK A01 T00920056  RH  078%=      5-min Rain = 0
KCA2 161512Z 27001KT 09/06 A302 RMK A01 T00940058  RH  078%=      5-min Rain = 0
KCA2 161513Z 25002KT 09/06 A302 RMK A01 T00940056  RH  077%=      5-min Rain = 0
KCA2 161514Z 25002KT 10/06 A302 RMK A01 T00950056  RH  077%=      5-min Rain = 0
KCA2 161515Z 25002KT 10/06 A302 RMK A01 T00950055  RH  076%=      5-min Rain = 0
KCA2 161516Z 27002KT 10/06 A302 RMK A01 T00960055  RH  076%=      5-min Rain = 0
KCA2 161517Z 28002KT 10/05 A302 RMK A01 T00960054  RH  075%=      5-min Rain = 0
KCA2 161518Z 29002KT 10/05 A302 RMK A01 T00970054  RH  075%=      5-min Rain = 0
KCA2 161519Z 32001KT 10/05 A302 RMK A01 T00980054  RH  074%=      5-min Rain = 0
KCA2 161520Z 28001KT 10/05 A302 RMK A01 T00990053  RH  073%=      5-min Rain = 0
KCA2 161521Z 26001KT 10/05 A302 RMK A01 T01000054  RH  073%=      5-min Rain = 0
KCA2 161522Z 24001KT 10/05 A302 RMK A01 T01000053  RH  073%=      5-min Rain = 0
KCA2 161523Z 25002KT 10/05 A302 RMK A01 T01000052  RH  072%=      5-min Rain = 0
KCA2 161524Z 26001KT 10/05 A302 RMK A01 T01010053  RH  072%=      5-min Rain = 0
KCA2 161525Z 26000KT 10/05 A302 RMK A01 T01000053  RH  073%=      5-min Rain = 0
KCA2 161526Z 23001KT 10/06 A3019 RMK A01 T01010055  RH  073%=      5-min Rain = 0
KCA2 161527Z 24002KT 10/06 A3019 RMK A01 T01020057  RH  074%=      5-min Rain = 0
KCA2 161528Z 25002KT 10/06 A3019 RMK A01 T01030056  RH  073%=      5-min Rain = 0
KCA2 161529Z 27002KT 10/06 A3019 RMK A01 T01020057  RH  073%=      5-min Rain = 0
KCA2 161530Z 29003KT 10/06 A3019 RMK A01 T01020057  RH  073%=      5-min Rain = 0
KCA2 161531Z 28002KT 10/06 A3019 RMK A01 T01020056  RH  073%=      5-min Rain = 0
KCA2 161532Z 29002KT 10/06 A3019 RMK A01 T01030055  RH  072%=      5-min Rain = 0
KCA2 161533Z 29002KT 10/06 A3019 RMK A01 T01030057  RH  073%=      5-min Rain = 0
KCA2 161534Z 30002KT 10/06 A3019 RMK A01 T01040056  RH  072%=      5-min Rain = 0
KCA2 161535Z 30002KT 10/05 A3019 RMK A01 T01040054  RH  071%=      5-min Rain = 0
KCA2 161536Z 30002KT 10/05 A3019 RMK A01 T01030054  RH  071%=      5-min Rain = 0
KCA2 161537Z 29002KT 10/05 A3019 RMK A01 T01030053  RH  071%=      5-min Rain = 0
KCA2 161538Z 28002KT 10/05 A3019 RMK A01 T01020053  RH  072%=      5-min Rain = 0
KCA2 161539Z 27001KT 10/06 A3019 RMK A01 T01030056  RH  072%=      5-min Rain = 0
KCA2 161540Z 23000KT 10/06 A3019 RMK A01 T01040055  RH  072%=      5-min Rain = 0
KCA2 161541Z 25002KT 11/06 A3019 RMK A01 T01050056  RH  072%=      5-min Rain = 0
KCA2 161542Z 24002KT 11/06 A3019 RMK A01 T01060056  RH  071%=      5-min Rain = 0
KCA2 161543Z 24002KT 11/06 A3019 RMK A01 T01070057  RH  071%=      5-min Rain = 0
KCA2 161544Z 25002KT 11/06 A3019 RMK A01 T01070055  RH  070%=      5-min Rain = 0
KCA2 161545Z 24001KT 11/06 A3019 RMK A01 T01070055  RH  070%=      5-min Rain = 0
KCA2 161546Z 24000KT 11/06 A3019 RMK A01 T01060055  RH  071%=      5-min Rain = 0
KCA2 161547Z 21001KT 11/06 A3019 RMK A01 T01060056  RH  071%=      5-min Rain = 0
KCA2 161548Z 21001KT 11/06 A3019 RMK A01 T01080057  RH  071%=      5-min Rain = 0
KCA2 161549Z 22000KT 11/06 A3019 RMK A01 T01080056  RH  070%=      5-min Rain = 0
KCA2 161550Z 00000KT 11/06 A3019 RMK A01 T01090056  RH  070%=      5-min Rain = 0
KCA2 161551Z 00000KT 11/06 A3019 RMK A01 T01090057  RH  070%=      5-min Rain = 0
KCA2 161552Z 00000KT 11/06 A302 RMK A01 T01110058  RH  070%=      5-min Rain = 0
KCA2 161553Z 12000KT 11/06 A302 RMK A01 T01130059  RH  069%=      5-min Rain = 0
KCA2 161554Z 10001KT 12/06 A302 RMK A01 T01150058  RH  068%=      5-min Rain = 0
KCA2 161555Z 13001KT 12/06 A302 RMK A01 T01160059  RH  068%=      5-min Rain = 0
KCA2 161556Z 19001KT 12/06 A302 RMK A01 T01180059  RH  067%=      5-min Rain = 0
KCA2 161557Z 21002KT 12/06 A302 RMK A01 T01170059  RH  067%=      5-min Rain = 0
KCA2 161558Z 23001KT 12/06 A302 RMK A01 T01160058  RH  067%=      5-min Rain = 0
KCA2 161559Z 26000KT 12/06 A302 RMK A01 T01160057  RH  067%=      5-min Rain = 0
KCA2 161600Z 22000KT 12/06 A302 RMK A01 T01160058  RH  068%=      5-min Rain = 0
KCA2 161601Z 30000KT 12/06 A302 RMK A01 T01160058  RH  068%=      5-min Rain = 0
KCA2 161602Z 28001KT 12/06 A302 RMK A01 T01150058  RH  068%=      5-min Rain = 0
KCA2 161603Z 28000KT 12/06 A302 RMK A01 T01150057  RH  068%=      5-min Rain = 0
KCA2 161604Z 23001KT 11/06 A302 RMK A01 T01140059  RH  069%=      5-min Rain = 0
KCA2 161605Z 29001KT 12/06 A302 RMK A01 T01160061  RH  069%=      5-min Rain = 0
KCA2 161606Z 27002KT 12/06 A302 RMK A01 T01170060  RH  068%=      5-min Rain = 0
KCA2 161607Z 27002KT 12/06 A302 RMK A01 T01170061  RH  068%=      5-min Rain = 0
KCA2 161608Z 25001KT 12/06 A302 RMK A01 T01170060  RH  068%=      5-min Rain = 0
KCA2 161609Z 29001KT 12/06 A302 RMK A01 T01160059  RH  068%=      5-min Rain = 0
KCA2 161610Z 31001KT 12/06 A302 RMK A01 T01160060  RH  069%=      5-min Rain = 0
KCA2 161611Z 27001KT 12/06 A302 RMK A01 T01170059  RH  068%=      5-min Rain = 0
KCA2 161612Z 19000KT 12/06 A302 RMK A01 T01170058  RH  067%=      5-min Rain = 0
KCA2 161613Z 24000KT 12/06 A302 RMK A01 T01170059  RH  067%=      5-min Rain = 0
KCA2 161614Z 23002KT 12/06 A302 RMK A01 T01180059  RH  067%=      5-min Rain = 0
KCA2 161615Z 22002KT 12/06 A302 RMK A01 T01180058  RH  066%=      5-min Rain = 0
KCA2 161616Z 21001KT 12/06 A302 RMK A01 T01170058  RH  067%=      5-min Rain = 0
KCA2 161617Z 23001KT 12/06 A302 RMK A01 T01170059  RH  068%=      5-min Rain = 0
KCA2 161618Z 21001KT 12/06 A302 RMK A01 T01170059  RH  068%=      5-min Rain = 0
KCA2 161619Z 23000KT 12/06 A302 RMK A01 T01170059  RH  068%=      5-min Rain = 0
KCA2 161620Z 22001KT 12/06 A3019 RMK A01 T01180059  RH  067%=      5-min Rain = 0
KCA2 161621Z 22000KT 12/06 A3019 RMK A01 T01190059  RH  067%=      5-min Rain = 0
KCA2 161622Z 16000KT 12/06 A3019 RMK A01 T01190060  RH  067%=      5-min Rain = 0
KCA2 161623Z 13001KT 12/06 A3019 RMK A01 T01200061  RH  067%=      5-min Rain = 0
KCA2 161624Z 12001KT 12/06 A3019 RMK A01 T01200061  RH  067%=      5-min Rain = 0
KCA2 161625Z 15001KT 12/06 A3019 RMK A01 T01200061  RH  067%=      5-min Rain = 0
KCA2 161626Z 14002KT 12/06 A3019 RMK A01 T01200061  RH  067%=      5-min Rain = 0
KCA2 161627Z 14002KT 12/06 A3019 RMK A01 T01200061  RH  067%=      5-min Rain = 0
KCA2 161628Z 15002KT 12/06 A3019 RMK A01 T01210061  RH  067%=      5-min Rain = 0
KCA2 161629Z 18002KT 12/06 A3019 RMK A01 T01210062  RH  067%=      5-min Rain = 0
KCA2 161630Z 22002KT 12/06 A3019 RMK A01 T01220061  RH  066%=      5-min Rain = 0
KCA2 161631Z 22002KT 12/06 A3019 RMK A01 T01220061  RH  067%=      5-min Rain = 0
KCA2 161632Z 22002KT 12/06 A3019 RMK A01 T01210060  RH  066%=      5-min Rain = 0
KCA2 161633Z 20003KT 12/06 A3019 RMK A01 T01220061  RH  067%=      5-min Rain = 0
KCA2 161634Z 19003KT 12/06 A3019 RMK A01 T01230061  RH  066%=      5-min Rain = 0
KCA2 161635Z 17002KT 12/06 A3019 RMK A01 T01230061  RH  066%=      5-min Rain = 0
KCA2 161636Z 15002KT 12/06 A3019 RMK A01 T01230061  RH  066%=      5-min Rain = 0
KCA2 161637Z 18001KT 12/06 A3019 RMK A01 T01230061  RH  066%=      5-min Rain = 0
KCA2 161638Z 22001KT 12/06 A3019 RMK A01 T01240062  RH  066%=      5-min Rain = 0
KCA2 161639Z 23003KT 13/06 A3019 RMK A01 T01250062  RH  065%=      5-min Rain = 0
KCA2 161640Z 22003KT 13/06 A3019 RMK A01 T01250061  RH  065%=      5-min Rain = 0
KCA2 161641Z 21002KT 12/06 A3019 RMK A01 T01240061  RH  065%=      5-min Rain = 0
KCA2 161642Z 19001KT 12/06 A3019 RMK A01 T01240060  RH  065%=      5-min Rain = 0
KCA2 161643Z 18000KT 12/06 A3019 RMK A01 T01240060  RH  065%=      5-min Rain = 0
KCA2 161644Z 20001KT 13/06 A3019 RMK A01 T01250061  RH  065%=      5-min Rain = 0
KCA2 161645Z 17001KT 13/06 A3019 RMK A01 T01260060  RH  064%=      5-min Rain = 0
KCA2 161646Z 20001KT 13/06 A3019 RMK A01 T01260060  RH  064%=      5-min Rain = 0
KCA2 161647Z 00000KT 13/06 A3019 RMK A01 T01270061  RH  064%=      5-min Rain = 0
KCA2 161648Z 17001KT 13/06 A3019 RMK A01 T01290064  RH  064%=      5-min Rain = 0
KCA2 161649Z 15002KT 13/06 A3019 RMK A01 T01300062  RH  063%=      5-min Rain = 0
KCA2 161650Z 11001KT 13/06 A3019 RMK A01 T01310062  RH  063%=      5-min Rain = 0
KCA2 161651Z 11001KT 13/06 A3019 RMK A01 T01300062  RH  063%=      5-min Rain = 0
KCA2 161652Z 28000KT 13/06 A3019 RMK A01 T01300063  RH  064%=      5-min Rain = 0
KCA2 161653Z 26001KT 13/06 A3019 RMK A01 T01300063  RH  063%=      5-min Rain = 0
KCA2 161654Z 27002KT 13/06 A3019 RMK A01 T01300061  RH  063%=      5-min Rain = 0
KCA2 161655Z 27001KT 13/06 A3019 RMK A01 T01300062  RH  063%=      5-min Rain = 0
KCA2 161656Z 23002KT 13/06 A3019 RMK A01 T01300063  RH  064%=      5-min Rain = 0
KCA2 161657Z 24002KT 13/06 A3019 RMK A01 T01310062  RH  063%=      5-min Rain = 0
KCA2 161658Z 24002KT 13/06 A3018 RMK A01 T01300062  RH  063%=      5-min Rain = 0
KCA2 161659Z 20003KT 13/06 A3018 RMK A01 T01300063  RH  064%=      5-min Rain = 0
KCA2 161700Z 21002KT 13/06 A3018 RMK A01 T01300063  RH  064%=      5-min Rain = 0
KCA2 161701Z 20002KT 13/06 A3018 RMK A01 T01300063  RH  064%=      5-min Rain = 0
KCA2 161702Z 20002KT 13/06 A3018 RMK A01 T01300062  RH  063%=      5-min Rain = 0
KCA2 161703Z 19001KT 13/06 A3018 RMK A01 T01300063  RH  063%=      5-min Rain = 0
KCA2 161704Z 13001KT 13/06 A3018 RMK A01 T01310062  RH  063%=      5-min Rain = 0
KCA2 161705Z 16002KT 13/06 A3018 RMK A01 T01320062  RH  063%=      5-min Rain = 0
KCA2 161706Z 21003KT 13/06 A3017 RMK A01 T01340064  RH  062%=      5-min Rain = 0
KCA2 161707Z 21003KT 14/06 A3017 RMK A01 T01360064  RH  062%=      5-min Rain = 0
KCA2 161708Z 22003KT 14/06 A3017 RMK A01 T01360064  RH  062%=      5-min Rain = 0
KCA2 161709Z 22003KT 14/06 A3017 RMK A01 T01350063  RH  062%=      5-min Rain = 0
KCA2 161710Z 22001KT 14/06 A3017 RMK A01 T01350064  RH  062%=      5-min Rain = 0
KCA2 161711Z 26002KT 14/06 A3017 RMK A01 T01360063  RH  061%=      5-min Rain = 0
KCA2 161712Z 28001KT 14/06 A3017 RMK A01 T01360063  RH  061%=      5-min Rain = 0
KCA2 161713Z 23001KT 14/06 A3017 RMK A01 T01360064  RH  062%=      5-min Rain = 0
KCA2 161714Z 17002KT 14/07 A3017 RMK A01 T01380067  RH  062%=      5-min Rain = 0
KCA2 161715Z 15001KT 14/07 A3017 RMK A01 T01400066  RH  061%=      5-min Rain = 0
KCA2 161716Z 23000KT 14/07 A3017 RMK A01 T01400066  RH  061%=      5-min Rain = 0
KCA2 161717Z 18002KT 14/07 A3017 RMK A01 T01400066  RH  061%=      5-min Rain = 0
KCA2 161718Z 15004KT 14/07 A3017 RMK A01 T01400068  RH  062%=      5-min Rain = 0
KCA2 161719Z 16003KT 14/07 A3017 RMK A01 T01400068  RH  061%=      5-min Rain = 0
KCA2 161720Z 12002KT 14/07 A3017 RMK A01 T01410068  RH  061%=      5-min Rain = 0
KCA2 161721Z 11003KT 14/07 A3017 RMK A01 T01400068  RH  062%=      5-min Rain = 0
KCA2 161722Z 12004KT 14/07 A3017 RMK A01 T01410068  RH  062%=      5-min Rain = 0
KCA2 161723Z 13001KT 14/07 A3017 RMK A01 T01420069  RH  061%=      5-min Rain = 0
KCA2 161724Z 15004KT 14/07 A3017 RMK A01 T01430068  RH  061%=      5-min Rain = 0
KCA2 161725Z 17004KT 14/07 A3017 RMK A01 T01420069  RH  061%=      5-min Rain = 0
KCA2 161726Z 19004KT 14/07 A3017 RMK A01 T01420070  RH  062%=      5-min Rain = 0
KCA2 161727Z 16003KT 14/07 A3017 RMK A01 T01430070  RH  061%=      5-min Rain = 0
KCA2 161728Z 15003KT 14/07 A3017 RMK A01 T01430068  RH  060%=      5-min Rain = 0
KCA2 161729Z 15001KT 14/07 A3017 RMK A01 T01430067  RH  060%=      5-min Rain = 0
KCA2 161730Z 19004KT 14/07 A3017 RMK A01 T01430067  RH  060%=      5-min Rain = 0
KCA2 161731Z 18004KT 14/07 A3016 RMK A01 T01430068  RH  061%=      5-min Rain = 0
KCA2 161732Z 20003KT 14/07 A3017 RMK A01 T01430067  RH  060%=      5-min Rain = 0
KCA2 161733Z 22003KT 14/07 A3016 RMK A01 T01430067  RH  060%=      5-min Rain = 0
KCA2 161734Z 23003KT 14/07 A3016 RMK A01 T01420067  RH  061%=      5-min Rain = 0
KCA2 161735Z 20002KT 14/07 A3017 RMK A01 T01420068  RH  061%=      5-min Rain = 0
KCA2 161736Z 19002KT 14/07 A3017 RMK A01 T01430069  RH  061%=      5-min Rain = 0
KCA2 161737Z 17003KT 15/07 A3017 RMK A01 T01450070  RH  061%=      5-min Rain = 0
KCA2 161738Z 17003KT 15/07 A3017 RMK A01 T01460070  RH  060%=      5-min Rain = 0
KCA2 161739Z 18003KT 15/07 A3016 RMK A01 T01470070  RH  060%=      5-min Rain = 0
KCA2 161740Z 17002KT 15/07 A3016 RMK A01 T01470069  RH  060%=      5-min Rain = 0
KCA2 161741Z 17002KT 15/07 A3016 RMK A01 T01480070  RH  060%=      5-min Rain = 0
KCA2 161742Z 18001KT 15/07 A3016 RMK A01 T01480071  RH  060%=      5-min Rain = 0
KCA2 161743Z 19004KT 15/07 A3016 RMK A01 T01500072  RH  059%=      5-min Rain = 0
KCA2 161744Z 20004KT 15/07 A3016 RMK A01 T01510070  RH  059%=      5-min Rain = 0
KCA2 161745Z 20003KT 15/07 A3016 RMK A01 T01500069  RH  059%=      5-min Rain = 0
KCA2 161746Z 21001KT 15/07 A3016 RMK A01 T01480068  RH  059%=      5-min Rain = 0
KCA2 161747Z 15000KT 15/07 A3016 RMK A01 T01470069  RH  059%=      5-min Rain = 0
KCA2 161748Z 14004KT 15/07 A3015 RMK A01 T01470070  RH  060%=      5-min Rain = 0
KCA2 161749Z 14004KT 15/07 A3015 RMK A01 T01480070  RH  059%=      5-min Rain = 0
KCA2 161750Z 13003KT 15/07 A3015 RMK A01 T01490070  RH  059%=      5-min Rain = 0
KCA2 161751Z 12002KT 15/07 A3015 RMK A01 T01490070  RH  059%=      5-min Rain = 0
KCA2 161752Z 09001KT 15/07 A3015 RMK A01 T01490070  RH  059%=      5-min Rain = 0
KCA2 161753Z 19001KT 15/07 A3015 RMK A01 T01510072  RH  059%=      5-min Rain = 0
KCA2 161754Z 16002KT 15/07 A3015 RMK A01 T01530071  RH  058%=      5-min Rain = 0
KCA2 161755Z 13002KT 15/07 A3015 RMK A01 T01540071  RH  058%=      5-min Rain = 0
KCA2 161756Z 13002KT 15/07 A3015 RMK A01 T01540071  RH  058%=      5-min Rain = 0
KCA2 161757Z 15003KT 15/07 A3015 RMK A01 T01540073  RH  058%=      5-min Rain = 0
KCA2 161758Z 15003KT 16/07 A3015 RMK A01 T01560073  RH  058%=      5-min Rain = 0
KCA2 161759Z 12004KT 16/07 A3015 RMK A01 T01570074  RH  058%=      5-min Rain = 0
KCA2 161800Z 13004KT 16/07 A3015 RMK A01 T01580074  RH  057%=      5-min Rain = 0
KCA2 161801Z 13003KT 16/07 A3015 RMK A01 T01580074  RH  057%=      5-min Rain = 0
KCA2 161802Z 13002KT 16/07 A3015 RMK A01 T01580074  RH  057%=      5-min Rain = 0
KCA2 161803Z 21002KT 16/07 A3015 RMK A01 T01580074  RH  057%=      5-min Rain = 0
KCA2 161804Z 17004KT 16/07 A3014 RMK A01 T01580074  RH  058%=      5-min Rain = 0
KCA2 161805Z 15006KT 16/08 A3014 RMK A01 T01600075  RH  057%=      5-min Rain = 0
KCA2 161806Z 17005KT 16/07 A3014 RMK A01 T01610074  RH  056%=      5-min Rain = 0
KCA2 161807Z 18005KT 16/07 A3014 RMK A01 T01610074  RH  056%=      5-min Rain = 0
KCA2 161808Z 16004KT 16/08 A3014 RMK A01 T01600076  RH  057%=      5-min Rain = 0
KCA2 161809Z 15003KT 16/08 A3014 RMK A01 T01610075  RH  057%=      5-min Rain = 0
KCA2 161810Z 15002KT 16/08 A3014 RMK A01 T01620075  RH  056%=      5-min Rain = 0
KCA2 161811Z 17003KT 16/08 A3014 RMK A01 T01610075  RH  057%=      5-min Rain = 0
KCA2 161812Z 18006KT 16/08 A3014 RMK A01 T01610076  RH  057%=      5-min Rain = 0
KCA2 161813Z 15005KT 16/08 A3014 RMK A01 T01610076  RH  057%=      5-min Rain = 0
KCA2 161814Z 17004KT 16/08 A3014 RMK A01 T01630077  RH  057%=      5-min Rain = 0
KCA2 161815Z 18003KT 17/08 A3014 RMK A01 T01650078  RH  056%=      5-min Rain = 0
KCA2 161816Z 16004KT 17/08 A3014 RMK A01 T01660078  RH  056%=      5-min Rain = 0
KCA2 161817Z 16003KT 17/08 A3014 RMK A01 T01660076  RH  055%=      5-min Rain = 0
KCA2 161818Z 16005KT 17/08 A3014 RMK A01 T01650076  RH  056%=      5-min Rain = 0
KCA2 161819Z 17006KT 16/08 A3014 RMK A01 T01640076  RH  056%=      5-min Rain = 0
KCA2 161820Z 18006KT 16/08 A3013 RMK A01 T01630076  RH  056%=      5-min Rain = 0
KCA2 161821Z 17004KT 16/08 A3013 RMK A01 T01640078  RH  057%=      5-min Rain = 0
KCA2 161822Z 14005KT 17/08 A3013 RMK A01 T01680079  RH  056%=      5-min Rain = 0
KCA2 161823Z 16005KT 17/08 A3013 RMK A01 T01690077  RH  055%=      5-min Rain = 0
KCA2 161824Z 17006KT 17/08 A3013 RMK A01 T01690077  RH  055%=      5-min Rain = 0
KCA2 161825Z 16006KT 17/08 A3013 RMK A01 T01690076  RH  054%=      5-min Rain = 0
KCA2 161826Z 16007KT 17/08 A3013 RMK A01 T01670077  RH  055%=      5-min Rain = 0
KCA2 161827Z 16006KT 17/08 A3013 RMK A01 T01670077  RH  055%=      5-min Rain = 0
KCA2 161828Z 15006KT 17/08 A3013 RMK A01 T01660077  RH  056%=      5-min Rain = 0
KCA2 161829Z 16003KT 17/08 A3013 RMK A01 T01660076  RH  055%=      5-min Rain = 0
KCA2 161830Z 16003KT 17/08 A3013 RMK A01 T01660078  RH  056%=      5-min Rain = 0
KCA2 161831Z 14002KT 17/08 A3013 RMK A01 T01680080  RH  056%=      5-min Rain = 0
KCA2 161832Z 15003KT 17/08 A3012 RMK A01 T01710079  RH  055%=      5-min Rain = 0
KCA2 161833Z 14006KT 17/08 A3012 RMK A01 T01710079  RH  055%=      5-min Rain = 0
KCA2 161834Z 14005KT 17/08 A3012 RMK A01 T01700078  RH  054%=      5-min Rain = 0
KCA2 161835Z 15005KT 17/08 A3012 RMK A01 T01690079  RH  055%=      5-min Rain = 0
KCA2 161836Z 17006KT 17/08 A3013 RMK A01 T01680077  RH  055%=      5-min Rain = 0
KCA2 161837Z 16005KT 17/08 A3013 RMK A01 T01670077  RH  055%=      5-min Rain = 0
KCA2 161838Z 15005KT 17/08 A3012 RMK A01 T01660077  RH  056%=      5-min Rain = 0
KCA2 161839Z 17005KT 17/08 A3012 RMK A01 T01670078  RH  056%=      5-min Rain = 0
KCA2 161840Z 19004KT 17/08 A3012 RMK A01 T01670077  RH  055%=      5-min Rain = 0
KCA2 161841Z 19005KT 17/08 A3012 RMK A01 T01670078  RH  055%=      5-min Rain = 0
KCA2 161842Z 18007KT 17/08 A3012 RMK A01 T01690080  RH  055%=      5-min Rain = 0
KCA2 161843Z 16006KT 17/08 A3012 RMK A01 T01720079  RH  055%=      5-min Rain = 0
KCA2 161844Z 16007KT 17/08 A3012 RMK A01 T01730079  RH  054%=      5-min Rain = 0
KCA2 161845Z 16007KT 17/08 A3012 RMK A01 T01740078  RH  053%=      5-min Rain = 0
KCA2 161846Z 15004KT 17/08 A3011 RMK A01 T01720077  RH  053%=      5-min Rain = 0
KCA2 161847Z 15006KT 17/08 A3011 RMK A01 T01710077  RH  054%=      5-min Rain = 0
KCA2 161848Z 16005KT 17/08 A3011 RMK A01 T01700078  RH  055%=      5-min Rain = 0
KCA2 161849Z 14006KT 17/08 A3011 RMK A01 T01700078  RH  055%=      5-min Rain = 0
KCA2 161850Z 13006KT 17/08 A3011 RMK A01 T01720079  RH  054%=      5-min Rain = 0
KCA2 161851Z 13004KT 17/08 A3011 RMK A01 T01720078  RH  054%=      5-min Rain = 0
KCA2 161852Z 11004KT 17/08 A3011 RMK A01 T01720079  RH  054%=      5-min Rain = 0
KCA2 161853Z 13005KT 17/08 A301 RMK A01 T01730081  RH  054%=      5-min Rain = 0
KCA2 161854Z 13006KT 18/08 A301 RMK A01 T01750081  RH  054%=      5-min Rain = 0
KCA2 161855Z 11006KT 18/08 A301 RMK A01 T01770080  RH  053%=      5-min Rain = 0
KCA2 161856Z 11004KT 18/08 A301 RMK A01 T01760079  RH  053%=      5-min Rain = 0
KCA2 161857Z 14006KT 18/08 A301 RMK A01 T01750080  RH  054%=      5-min Rain = 0
KCA2 161858Z 14007KT 18/08 A301 RMK A01 T01770080  RH  053%=      5-min Rain = 0
KCA2 161859Z 15007KT 18/08 A301 RMK A01 T01790079  RH  052%=      5-min Rain = 0
KCA2 161900Z 15006KT 18/08 A301 RMK A01 T01790080  RH  052%=      5-min Rain = 0
KCA2 161901Z 13004KT 18/08 A301 RMK A01 T01790079  RH  052%=      5-min Rain = 0
KCA2 161902Z 12005KT 18/08 A301 RMK A01 T01770079  RH  052%=      5-min Rain = 0
KCA2 161903Z 15006KT 18/08 A3009 RMK A01 T01780080  RH  053%=      5-min Rain = 0
KCA2 161904Z 16007KT 18/08 A3009 RMK A01 T01800079  RH  052%=      5-min Rain = 0
KCA2 161905Z 16005KT 18/08 A3009 RMK A01 T01810079  RH  051%=      5-min Rain = 0
KCA2 161906Z 15008KT 18/08 A3009 RMK A01 T01820079  RH  051%=      5-min Rain = 0
KCA2 161907Z 15006KT 18/08 A3009 RMK A01 T01820079  RH  051%=      5-min Rain = 0
KCA2 161908Z 15007KT 18/08 A3009 RMK A01 T01820079  RH  051%=      5-min Rain = 0
KCA2 161909Z 15005KT 18/08 A3009 RMK A01 T01820079  RH  051%=      5-min Rain = 0
KCA2 161910Z 15004KT 18/08 A3009 RMK A01 T01810079  RH  051%=      5-min Rain = 0
KCA2 161911Z 15004KT 18/08 A3009 RMK A01 T01820079  RH  051%=      5-min Rain = 0
KCA2 161912Z 13006KT 18/08 A3009 RMK A01 T01820080  RH  051%=      5-min Rain = 0
KCA2 161913Z 13005KT 18/08 A3009 RMK A01 T01830079  RH  051%=      5-min Rain = 0
KCA2 161914Z 12003KT 18/08 A3009 RMK A01 T01800079  RH  051%=      5-min Rain = 0
KCA2 161915Z 14004KT 18/08 A3008 RMK A01 T01780078  RH  052%=      5-min Rain = 0
KCA2 161916Z 15005KT 18/08 A3008 RMK A01 T01790079  RH  052%=      5-min Rain = 0
KCA2 161917Z 15005KT 18/08 A3008 RMK A01 T01800080  RH  052%=      5-min Rain = 0
KCA2 161918Z 12005KT 18/08 A3008 RMK A01 T01820080  RH  051%=      5-min Rain = 0
KCA2 161919Z 13005KT 18/08 A3008 RMK A01 T01820080  RH  051%=      5-min Rain = 0
KCA2 161920Z 15004KT 18/08 A3008 RMK A01 T01820080  RH  052%=      5-min Rain = 0
KCA2 161921Z 17003KT 18/08 A3008 RMK A01 T01830080  RH  051%=      5-min Rain = 0
KCA2 161922Z 17005KT 19/08 A3008 RMK A01 T01860082  RH  051%=      5-min Rain = 0
KCA2 161923Z 16005KT 19/08 A3008 RMK A01 T01860080  RH  050%=      5-min Rain = 0
KCA2 161924Z 15003KT 19/08 A3008 RMK A01 T01860082  RH  051%=      5-min Rain = 0
KCA2 161925Z 14003KT 19/08 A3008 RMK A01 T01870081  RH  050%=      5-min Rain = 0
KCA2 161926Z 12005KT 19/08 A3008 RMK A01 T01880082  RH  050%=      5-min Rain = 0
KCA2 161927Z 15005KT 19/08 A3007 RMK A01 T01890081  RH  050%=      5-min Rain = 0
KCA2 161928Z 14006KT 19/08 A3007 RMK A01 T01880080  RH  049%=      5-min Rain = 0
KCA2 161929Z 15005KT 19/08 A3007 RMK A01 T01870080  RH  050%=      5-min Rain = 0
KCA2 161930Z 15005KT 19/08 A3007 RMK A01 T01860080  RH  050%=      5-min Rain = 0
KCA2 161931Z 14004KT 19/08 A3007 RMK A01 T01860080  RH  050%=      5-min Rain = 0
KCA2 161932Z 15003KT 19/08 A3007 RMK A01 T01860082  RH  051%=      5-min Rain = 0
KCA2 161933Z 18005KT 19/08 A3007 RMK A01 T01870081  RH  050%=      5-min Rain = 0
KCA2 161934Z 17006KT 19/08 A3007 RMK A01 T01880081  RH  049%=      5-min Rain = 0
KCA2 161935Z 16005KT 19/08 A3007 RMK A01 T01890081  RH  050%=      5-min Rain = 0
KCA2 161936Z 15003KT 19/08 A3007 RMK A01 T01890081  RH  049%=      5-min Rain = 0
KCA2 161937Z 14005KT 19/08 A3007 RMK A01 T01890081  RH  050%=      5-min Rain = 0
KCA2 161938Z 13003KT 19/08 A3007 RMK A01 T01900081  RH  049%=      5-min Rain = 0
KCA2 161939Z 16006KT 19/08 A3007 RMK A01 T01900083  RH  050%=      5-min Rain = 0
KCA2 161940Z 15005KT 19/08 A3007 RMK A01 T01900082  RH  049%=      5-min Rain = 0
KCA2 161941Z 16002KT 19/08 A3007 RMK A01 T01910083  RH  049%=      5-min Rain = 0
KCA2 161942Z 14003KT 19/08 A3007 RMK A01 T01910082  RH  049%=      5-min Rain = 0
KCA2 161943Z 13005KT 19/08 A3007 RMK A01 T01910083  RH  049%=      5-min Rain = 0
KCA2 161944Z 14005KT 19/08 A3006 RMK A01 T01900084  RH  050%=      5-min Rain = 0
KCA2 161945Z 15006KT 19/08 A3006 RMK A01 T01910084  RH  050%=      5-min Rain = 0
KCA2 161946Z 16007KT 19/08 A3006 RMK A01 T01920082  RH  049%=      5-min Rain = 0
KCA2 161947Z 16006KT 19/08 A3006 RMK A01 T01910082  RH  049%=      5-min Rain = 0
KCA2 161948Z 16006KT 19/08 A3006 RMK A01 T01910082  RH  049%=      5-min Rain = 0
KCA2 161949Z 16004KT 19/08 A3006 RMK A01 T01900081  RH  049%=      5-min Rain = 0
KCA2 161950Z 15005KT 19/08 A3006 RMK A01 T01880081  RH  050%=      5-min Rain = 0
KCA2 161951Z 14005KT 19/08 A3006 RMK A01 T01880082  RH  050%=      5-min Rain = 0
KCA2 161952Z 14006KT 19/08 A3005 RMK A01 T01890083  RH  050%=      5-min Rain = 0
KCA2 161953Z 15005KT 19/08 A3005 RMK A01 T01890083  RH  050%=      5-min Rain = 0
KCA2 161954Z 16005KT 19/08 A3005 RMK A01 T01890084  RH  050%=      5-min Rain = 0
KCA2 161955Z 15007KT 19/09 A3005 RMK A01 T01910085  RH  050%=      5-min Rain = 0
KCA2 161956Z 13006KT 19/09 A3005 RMK A01 T01930085  RH  049%=      5-min Rain = 0
KCA2 161957Z 14005KT 19/08 A3005 RMK A01 T01930084  RH  049%=      5-min Rain = 0
KCA2 161958Z 14004KT 19/09 A3005 RMK A01 T01920085  RH  050%=      5-min Rain = 0
KCA2 161959Z 14001KT 19/08 A3005 RMK A01 T01920082  RH  049%=      5-min Rain = 0
KCA2 162000Z 18004KT 19/08 A3005 RMK A01 T01920084  RH  050%=      5-min Rain = 0
KCA2 162001Z 18006KT 19/09 A3005 RMK A01 T01940085  RH  049%=      5-min Rain = 0
KCA2 162002Z 18005KT 20/08 A3005 RMK A01 T01950084  RH  049%=      5-min Rain = 0
KCA2 162003Z 19005KT 19/08 A3005 RMK A01 T01940084  RH  049%=      5-min Rain = 0
KCA2 162004Z 18004KT 19/08 A3005 RMK A01 T01930084  RH  049%=      5-min Rain = 0
KCA2 162005Z 19004KT 19/08 A3005 RMK A01 T01920084  RH  050%=      5-min Rain = 0
KCA2 162006Z 17006KT 19/09 A3005 RMK A01 T01920085  RH  050%=      5-min Rain = 0
KCA2 162007Z 17007KT 19/09 A3005 RMK A01 T01940087  RH  050%=      5-min Rain = 0
KCA2 162008Z 17007KT 20/09 A3005 RMK A01 T01960086  RH  049%=      5-min Rain = 0
KCA2 162009Z 17007KT 20/09 A3005 RMK A01 T01960086  RH  049%=      5-min Rain = 0
KCA2 162010Z 16005KT 20/09 A3005 RMK A01 T01950086  RH  049%=      5-min Rain = 0
KCA2 162011Z 17006KT 20/09 A3004 RMK A01 T01950087  RH  050%=      5-min Rain = 0
KCA2 162012Z 17006KT 20/09 A3004 RMK A01 T01960086  RH  049%=      5-min Rain = 0
KCA2 162013Z 17006KT 20/09 A3004 RMK A01 T01950086  RH  049%=      5-min Rain = 0
KCA2 162014Z 18006KT 20/09 A3004 RMK A01 T01950087  RH  050%=      5-min Rain = 0
KCA2 162015Z 17006KT 20/09 A3004 RMK A01 T01950087  RH  049%=      5-min Rain = 0
KCA2 162016Z 15007KT 20/09 A3004 RMK A01 T01960088  RH  050%=      5-min Rain = 0
KCA2 162017Z 16009KT 20/09 A3004 RMK A01 T01970087  RH  049%=      5-min Rain = 0
KCA2 162018Z 16008KT 20/09 A3004 RMK A01 T01970086  RH  049%=      5-min Rain = 0
KCA2 162019Z 16008KT 20/09 A3004 RMK A01 T01960087  RH  049%=      5-min Rain = 0
KCA2 162020Z 17007KT 20/09 A3004 RMK A01 T01960087  RH  050%=      5-min Rain = 0
KCA2 162021Z 16007KT 20/09 A3004 RMK A01 T01960087  RH  049%=      5-min Rain = 0
KCA2 162022Z 16006KT 20/09 A3004 RMK A01 T01960087  RH  049%=      5-min Rain = 0
KCA2 162023Z 16007KT 20/09 A3004 RMK A01 T01970088  RH  049%=      5-min Rain = 0
KCA2 162024Z 15007KT 20/09 A3004 RMK A01 T01970087  RH  049%=      5-min Rain = 0
KCA2 162025Z 15006KT 20/09 A3004 RMK A01 T01970087  RH  049%=      5-min Rain = 0
KCA2 162026Z 15005KT 20/09 A3004 RMK A01 T01970087  RH  049%=      5-min Rain = 0
KCA2 162027Z 14007KT 20/09 A3004 RMK A01 T01970087  RH  049%=      5-min Rain = 0
KCA2 162028Z 14007KT 20/09 A3004 RMK A01 T01970087  RH  049%=      5-min Rain = 0
KCA2 162029Z 15004KT 20/09 A3004 RMK A01 T01960087  RH  049%=      5-min Rain = 0
KCA2 162030Z 15005KT 20/09 A3004 RMK A01 T01960087  RH  049%=      5-min Rain = 0
KCA2 162031Z 16005KT 20/09 A3003 RMK A01 T01960088  RH  050%=      5-min Rain = 0
KCA2 162032Z 16005KT 20/09 A3003 RMK A01 T01970088  RH  049%=      5-min Rain = 0
KCA2 162033Z 15004KT 20/09 A3003 RMK A01 T01990088  RH  049%=      5-min Rain = 0
KCA2 162034Z 15004KT 20/09 A3004 RMK A01 T01980087  RH  049%=      5-min Rain = 0
KCA2 162035Z 17005KT 20/09 A3004 RMK A01 T01980087  RH  049%=      5-min Rain = 0
KCA2 162036Z 18005KT 20/09 A3004 RMK A01 T01980087  RH  049%=      5-min Rain = 0
KCA2 162037Z 17007KT 20/09 A3004 RMK A01 T01980088  RH  049%=      5-min Rain = 0
KCA2 162038Z 17007KT 20/09 A3004 RMK A01 T01980088  RH  049%=      5-min Rain = 0
KCA2 162039Z 17006KT 20/09 A3004 RMK A01 T01990087  RH  049%=      5-min Rain = 0
KCA2 162040Z 17006KT 20/09 A3003 RMK A01 T01990087  RH  049%=      5-min Rain = 0
KCA2 162041Z 17005KT 20/09 A3003 RMK A01 T01980087  RH  049%=      5-min Rain = 0
KCA2 162042Z 17005KT 20/09 A3003 RMK A01 T01970087  RH  049%=      5-min Rain = 0
KCA2 162043Z 16005KT 20/09 A3003 RMK A01 T01970088  RH  049%=      5-min Rain = 0
KCA2 162044Z 16005KT 20/09 A3003 RMK A01 T01990089  RH  049%=      5-min Rain = 0
KCA2 162045Z 17005KT 20/09 A3003 RMK A01 T02000088  RH  048%=      5-min Rain = 0
KCA2 162046Z 16005KT 20/09 A3002 RMK A01 T02000088  RH  048%=      5-min Rain = 0
KCA2 162047Z 18004KT 20/09 A3002 RMK A01 T02010088  RH  048%=      5-min Rain = 0
KCA2 162048Z 17006KT 20/09 A3002 RMK A01 T02010088  RH  048%=      5-min Rain = 0
KCA2 162049Z 16006KT 20/09 A3002 RMK A01 T02020088  RH  048%=      5-min Rain = 0
KCA2 162050Z 16006KT 20/09 A3002 RMK A01 T02020089  RH  048%=      5-min Rain = 0
KCA2 162051Z 16006KT 20/09 A3003 RMK A01 T02020087  RH  048%=      5-min Rain = 0
KCA2 162052Z 16006KT 20/09 A3003 RMK A01 T02010087  RH  048%=      5-min Rain = 0
KCA2 162053Z 16006KT 20/09 A3003 RMK A01 T02010088  RH  048%=      5-min Rain = 0
KCA2 162054Z 15004KT 20/09 A3003 RMK A01 T02010087  RH  048%=      5-min Rain = 0
KCA2 162055Z 17005KT 20/09 A3003 RMK A01 T02010088  RH  048%=      5-min Rain = 0
KCA2 162056Z 17006KT 20/09 A3003 RMK A01 T02010089  RH  048%=      5-min Rain = 0
KCA2 162057Z 16006KT 20/09 A3002 RMK A01 T02020089  RH  048%=      5-min Rain = 0
KCA2 162058Z 16007KT 20/09 A3002 RMK A01 T02020087  RH  047%=      5-min Rain = 0
KCA2 162059Z 13004KT 20/09 A3002 RMK A01 T02020087  RH  048%=      5-min Rain = 0
KCA2 162100Z 13004KT 20/09 A3002 RMK A01 T02020088  RH  048%=      5-min Rain = 0
KCA2 162101Z 16003KT 20/09 A3002 RMK A01 T02010087  RH  048%=      5-min Rain = 0
KCA2 162102Z 15003KT 20/09 A3002 RMK A01 T02020088  RH  048%=      5-min Rain = 0
KCA2 162103Z 18006KT 20/09 A3002 RMK A01 T02020087  RH  048%=      5-min Rain = 0
KCA2 162104Z 18006KT 20/09 A3002 RMK A01 T02020087  RH  048%=      5-min Rain = 0
KCA2 162105Z 15005KT 20/09 A3002 RMK A01 T02030089  RH  048%=      5-min Rain = 0
KCA2 162106Z 14004KT 20/09 A3002 RMK A01 T02040089  RH  048%=      5-min Rain = 0
KCA2 162107Z 16004KT 20/09 A3002 RMK A01 T02040087  RH  047%=      5-min Rain = 0
KCA2 162108Z 15005KT 20/09 A3002 RMK A01 T02040087  RH  047%=      5-min Rain = 0
KCA2 162109Z 15005KT 20/09 A3002 RMK A01 T02030087  RH  047%=      5-min Rain = 0
KCA2 162110Z 17004KT 20/09 A3002 RMK A01 T02020088  RH  048%=      5-min Rain = 0
KCA2 162111Z 17004KT 20/09 A3002 RMK A01 T02030087  RH  047%=      5-min Rain = 0
KCA2 162112Z 18003KT 20/09 A3001 RMK A01 T02030086  RH  047%=      5-min Rain = 0
KCA2 162113Z 20004KT 20/09 A3001 RMK A01 T02020087  RH  047%=      5-min Rain = 0
KCA2 162114Z 19005KT 20/09 A3001 RMK A01 T02020086  RH  047%=      5-min Rain = 0
KCA2 162115Z 17004KT 20/09 A3001 RMK A01 T02020087  RH  047%=      5-min Rain = 0
KCA2 162116Z 16005KT 20/09 A3001 RMK A01 T02020087  RH  047%=      5-min Rain = 0
KCA2 162117Z 15005KT 20/09 A3001 RMK A01 T02020087  RH  047%=      5-min Rain = 0
KCA2 162118Z 15006KT 20/09 A3001 RMK A01 T02030088  RH  047%=      5-min Rain = 0
KCA2 162119Z 15005KT 20/09 A3001 RMK A01 T02040087  RH  047%=      5-min Rain = 0
KCA2 162120Z 14005KT 20/09 A3001 RMK A01 T02040087  RH  047%=      5-min Rain = 0
KCA2 162121Z 15004KT 20/09 A3001 RMK A01 T02040086  RH  047%=      5-min Rain = 0
KCA2 162122Z 15003KT 20/09 A3001 RMK A01 T02040088  RH  047%=      5-min Rain = 0
KCA2 162123Z 16004KT 20/09 A3001 RMK A01 T02040089  RH  047%=      5-min Rain = 0
KCA2 162124Z 18004KT 21/09 A3001 RMK A01 T02050089  RH  047%=      5-min Rain = 0
KCA2 162125Z 17004KT 21/09 A3001 RMK A01 T02060090  RH  047%=      5-min Rain = 0
KCA2 162126Z 17006KT 21/09 A3001 RMK A01 T02070088  RH  047%=      5-min Rain = 0
KCA2 162127Z 17005KT 21/09 A3001 RMK A01 T02070088  RH  046%=      5-min Rain = 0
KCA2 162128Z 17004KT 21/09 A3001 RMK A01 T02060087  RH  046%=      5-min Rain = 0
KCA2 162129Z 16005KT 21/09 A3001 RMK A01 T02050088  RH  047%=      5-min Rain = 0
KCA2 162130Z 16004KT 21/09 A3001 RMK A01 T02050087  RH  047%=      5-min Rain = 0
KCA2 162131Z 17004KT 21/09 A3001 RMK A01 T02050087  RH  047%=      5-min Rain = 0
KCA2 162132Z 17004KT 21/09 A3001 RMK A01 T02050087  RH  047%=      5-min Rain = 0
KCA2 162133Z 17006KT 21/09 A3001 RMK A01 T02050088  RH  047%=      5-min Rain = 0
KCA2 162134Z 16004KT 21/09 A30 RMK A01 T02060087  RH  046%=      5-min Rain = 0
KCA2 162135Z 19006KT 21/09 A30 RMK A01 T02060088  RH  047%=      5-min Rain = 0
KCA2 162136Z 18004KT 21/09 A30 RMK A01 T02050088  RH  047%=      5-min Rain = 0
KCA2 162137Z 16005KT 21/09 A30 RMK A01 T02050089  RH  047%=      5-min Rain = 0
KCA2 162138Z 15006KT 21/09 A30 RMK A01 T02050088  RH  047%=      5-min Rain = 0
KCA2 162139Z 15005KT 21/09 A30 RMK A01 T02060087  RH  046%=      5-min Rain = 0
KCA2 162140Z 14004KT 21/09 A30 RMK A01 T02060088  RH  047%=      5-min Rain = 0
KCA2 162141Z 16004KT 21/09 A30 RMK A01 T02060088  RH  047%=      5-min Rain = 0
KCA2 162142Z 17005KT 21/09 A30 RMK A01 T02060087  RH  046%=      5-min Rain = 0
KCA2 162143Z 19004KT 21/09 A30 RMK A01 T02060087  RH  046%=      5-min Rain = 0
KCA2 162144Z 18005KT 21/09 A30 RMK A01 T02050088  RH  047%=      5-min Rain = 0
KCA2 162145Z 17005KT 21/09 A30 RMK A01 T02060087  RH  046%=      5-min Rain = 0
KCA2 162146Z 19004KT 21/09 A30 RMK A01 T02060088  RH  047%=      5-min Rain = 0
KCA2 162147Z 18004KT 21/09 A30 RMK A01 T02060087  RH  046%=      5-min Rain = 0
KCA2 162148Z 17004KT 21/09 A30 RMK A01 T02060088  RH  047%=      5-min Rain = 0
KCA2 162149Z 18003KT 21/09 A30 RMK A01 T02060088  RH  047%=      5-min Rain = 0
KCA2 162150Z 20003KT 21/09 A30 RMK A01 T02060089  RH  047%=      5-min Rain = 0
KCA2 162151Z 20004KT 21/09 A30 RMK A01 T02070090  RH  047%=      5-min Rain = 0
KCA2 162152Z 19006KT 21/09 A30 RMK A01 T02080089  RH  046%=      5-min Rain = 0
KCA2 162153Z 16005KT 21/09 A30 RMK A01 T02090089  RH  046%=      5-min Rain = 0
KCA2 162154Z 15005KT 21/09 A30 RMK A01 T02080088  RH  046%=      5-min Rain = 0
KCA2 162155Z 14004KT 21/09 A2999 RMK A01 T02080088  RH  046%=      5-min Rain = 0
KCA2 162156Z 14003KT 21/09 A2999 RMK A01 T02070088  RH  046%=      5-min Rain = 0
KCA2 162157Z 14003KT 21/09 A2999 RMK A01 T02070087  RH  046%=      5-min Rain = 0
KCA2 162158Z 17002KT 21/09 A30 RMK A01 T02060088  RH  047%=      5-min Rain = 0
KCA2 162159Z 17002KT 21/09 A30 RMK A01 T02060088  RH  047%=      5-min Rain = 0
KCA2 162200Z 18002KT 21/09 A30 RMK A01 T02070089  RH  047%=      5-min Rain = 0
KCA2 162201Z 20001KT 21/09 A30 RMK A01 T02070088  RH  046%=      5-min Rain = 0
KCA2 162202Z 17002KT 21/09 A30 RMK A01 T02080088  RH  046%=      5-min Rain = 0
KCA2 162203Z 19004KT 21/09 A30 RMK A01 T02080089  RH  046%=      5-min Rain = 0
KCA2 162204Z 18004KT 21/09 A30 RMK A01 T02080089  RH  046%=      5-min Rain = 0
KCA2 162205Z 19002KT 21/09 A30 RMK A01 T02080087  RH  046%=      5-min Rain = 0
KCA2 162206Z 16003KT 21/09 A30 RMK A01 T02090088  RH  046%=      5-min Rain = 0
KCA2 162207Z 16002KT 21/09 A30 RMK A01 T02080087  RH  046%=      5-min Rain = 0
KCA2 162208Z 16002KT 21/09 A30 RMK A01 T02080087  RH  046%=      5-min Rain = 0
KCA2 162209Z 20002KT 21/09 A30 RMK A01 T02080088  RH  046%=      5-min Rain = 0
KCA2 162210Z 21002KT 21/09 A30 RMK A01 T02080087  RH  046%=      5-min Rain = 0
KCA2 162211Z 18002KT 21/09 A30 RMK A01 T02080086  RH  046%=      5-min Rain = 0
KCA2 162212Z 19002KT 21/09 A30 RMK A01 T02080087  RH  046%=      5-min Rain = 0
KCA2 162213Z 19003KT 21/09 A30 RMK A01 T02080087  RH  046%=      5-min Rain = 0
KCA2 162214Z 21002KT 21/09 A30 RMK A01 T02080087  RH  046%=      5-min Rain = 0
KCA2 162215Z 22003KT 21/09 A30 RMK A01 T02080086  RH  045%=      5-min Rain = 0
KCA2 162216Z 21003KT 21/09 A30 RMK A01 T02090086  RH  045%=      5-min Rain = 0
KCA2 162217Z 21002KT 21/09 A30 RMK A01 T02080087  RH  046%=      5-min Rain = 0
KCA2 162218Z 20002KT 21/09 A30 RMK A01 T02080087  RH  046%=      5-min Rain = 0
KCA2 162219Z 19002KT 21/09 A30 RMK A01 T02090088  RH  046%=      5-min Rain = 0
KCA2 162220Z 19002KT 21/09 A30 RMK A01 T02080086  RH  045%=      5-min Rain = 0
KCA2 162221Z 19003KT 21/09 A30 RMK A01 T02090087  RH  046%=      5-min Rain = 0
KCA2 162222Z 18002KT 21/09 A30 RMK A01 T02080086  RH  045%=      5-min Rain = 0
KCA2 162223Z 17002KT 21/09 A30 RMK A01 T02080087  RH  046%=      5-min Rain = 0
KCA2 162224Z 18002KT 21/09 A30 RMK A01 T02080087  RH  045%=      5-min Rain = 0
KCA2 162225Z 18002KT 21/09 A30 RMK A01 T02080086  RH  045%=      5-min Rain = 0
KCA2 162226Z 19002KT 21/09 A30 RMK A01 T02080086  RH  045%=      5-min Rain = 0
KCA2 162227Z 17001KT 21/09 A30 RMK A01 T02080086  RH  045%=      5-min Rain = 0
KCA2 162228Z 15002KT 21/09 A30 RMK A01 T02090086  RH  045%=      5-min Rain = 0
KCA2 162229Z 16002KT 21/09 A30 RMK A01 T02100088  RH  046%=      5-min Rain = 0
KCA2 162230Z 16002KT 21/09 A30 RMK A01 T02100087  RH  045%=      5-min Rain = 0
KCA2 162231Z 16002KT 21/09 A30 RMK A01 T02110086  RH  045%=      5-min Rain = 0
KCA2 162232Z 13001KT 21/09 A30 RMK A01 T02110086  RH  045%=      5-min Rain = 0
KCA2 162233Z 13001KT 21/09 A30 RMK A01 T02110087  RH  045%=      5-min Rain = 0
KCA2 162234Z 11001KT 21/09 A30 RMK A01 T02110086  RH  045%=      5-min Rain = 0
KCA2 162235Z 08001KT 21/09 A30 RMK A01 T02110087  RH  045%=      5-min Rain = 0
KCA2 162236Z 09000KT 21/09 A30 RMK A01 T02100086  RH  045%=      5-min Rain = 0
KCA2 162237Z 25001KT 21/09 A30 RMK A01 T02100087  RH  045%=      5-min Rain = 0
KCA2 162238Z 24002KT 21/09 A30 RMK A01 T02100086  RH  045%=      5-min Rain = 0
KCA2 162239Z 27002KT 21/09 A30 RMK A01 T02110086  RH  045%=      5-min Rain = 0
KCA2 162240Z 29003KT 21/09 A30 RMK A01 T02110087  RH  045%=      5-min Rain = 0
KCA2 162241Z 29003KT 21/09 A30 RMK A01 T02110088  RH  045%=      5-min Rain = 0
KCA2 162242Z 30004KT 21/09 A30 RMK A01 T02110088  RH  045%=      5-min Rain = 0
KCA2 162243Z 32004KT 21/09 A30 RMK A01 T02110087  RH  045%=      5-min Rain = 0
KCA2 162244Z 31004KT 21/09 A30 RMK A01 T02100087  RH  045%=      5-min Rain = 0
KCA2 162245Z 31005KT 21/09 A30 RMK A01 T02100088  RH  046%=      5-min Rain = 0
KCA2 162246Z 31004KT 21/09 A30 RMK A01 T02100088  RH  045%=      5-min Rain = 0
KCA2 162247Z 30004KT 21/09 A30 RMK A01 T02100088  RH  046%=      5-min Rain = 0
KCA2 162248Z 30003KT 21/09 A30 RMK A01 T02090088  RH  046%=      5-min Rain = 0
KCA2 162249Z 30004KT 21/09 A30 RMK A01 T02090089  RH  046%=      5-min Rain = 0
KCA2 162250Z 30004KT 21/09 A2999 RMK A01 T02090088  RH  046%=      5-min Rain = 0
KCA2 162251Z 29003KT 21/09 A30 RMK A01 T02090088  RH  046%=      5-min Rain = 0
KCA2 162252Z 28004KT 21/09 A30 RMK A01 T02080088  RH  046%=      5-min Rain = 0
KCA2 162253Z 28004KT 21/09 A30 RMK A01 T02090089  RH  046%=      5-min Rain = 0
KCA2 162254Z 29004KT 21/09 A30 RMK A01 T02080089  RH  046%=      5-min Rain = 0
KCA2 162255Z 29004KT 21/09 A30 RMK A01 T02080089  RH  046%=      5-min Rain = 0
KCA2 162256Z 30004KT 21/09 A30 RMK A01 T02080088  RH  046%=      5-min Rain = 0
KCA2 162257Z 30004KT 21/09 A30 RMK A01 T02070088  RH  046%=      5-min Rain = 0
KCA2 162258Z 29004KT 21/09 A30 RMK A01 T02070088  RH  046%=      5-min Rain = 0
KCA2 162259Z 30004KT 21/09 A30 RMK A01 T02060088  RH  047%=      5-min Rain = 0
KCA2 162300Z 30005KT 21/09 A30 RMK A01 T02060089  RH  047%=      5-min Rain = 0
KCA2 162301Z 30004KT 21/09 A30 RMK A01 T02060088  RH  047%=      5-min Rain = 0
KCA2 162302Z 29005KT 21/09 A30 RMK A01 T02050088  RH  047%=      5-min Rain = 0
KCA2 162303Z 28004KT 21/09 A30 RMK A01 T02050088  RH  047%=      5-min Rain = 0
KCA2 162304Z 28004KT 21/09 A30 RMK A01 T02050088  RH  047%=      5-min Rain = 0
KCA2 162305Z 28004KT 20/09 A30 RMK A01 T02040088  RH  047%=      5-min Rain = 0
KCA2 162306Z 28004KT 20/09 A30 RMK A01 T02040088  RH  047%=      5-min Rain = 0
KCA2 162307Z 28004KT 20/09 A30 RMK A01 T02030088  RH  047%=      5-min Rain = 0
KCA2 162308Z 29003KT 20/09 A30 RMK A01 T02030088  RH  048%=      5-min Rain = 0
KCA2 162309Z 28003KT 20/09 A30 RMK A01 T02030088  RH  047%=      5-min Rain = 0
KCA2 162310Z 28003KT 20/09 A30 RMK A01 T02030088  RH  048%=      5-min Rain = 0
KCA2 162311Z 29003KT 20/09 A30 RMK A01 T02030089  RH  048%=      5-min Rain = 0
KCA2 162312Z 28002KT 20/09 A30 RMK A01 T02030088  RH  048%=      5-min Rain = 0
KCA2 162313Z 29003KT 20/09 A30 RMK A01 T02030090  RH  048%=      5-min Rain = 0
KCA2 162314Z 29003KT 20/09 A30 RMK A01 T02030089  RH  048%=      5-min Rain = 0
KCA2 162315Z 29003KT 20/09 A30 RMK A01 T02030090  RH  048%=      5-min Rain = 0
KCA2 162316Z 29003KT 20/09 A30 RMK A01 T02020088  RH  048%=      5-min Rain = 0
KCA2 162317Z 29003KT 20/09 A30 RMK A01 T02020089  RH  048%=      5-min Rain = 0
KCA2 162318Z 29003KT 20/09 A30 RMK A01 T02020089  RH  048%=      5-min Rain = 0
KCA2 162319Z 28003KT 20/09 A30 RMK A01 T02020089  RH  048%=      5-min Rain = 0
KCA2 162320Z 28003KT 20/09 A30 RMK A01 T02010089  RH  048%=      5-min Rain = 0
KCA2 162321Z 28003KT 20/09 A30 RMK A01 T02010089  RH  048%=      5-min Rain = 0
KCA2 162322Z 28004KT 20/09 A30 RMK A01 T02010088  RH  048%=      5-min Rain = 0
KCA2 162323Z 29003KT 20/09 A30 RMK A01 T02000088  RH  048%=      5-min Rain = 0
KCA2 162324Z 29004KT 20/09 A30 RMK A01 T02000089  RH  049%=      5-min Rain = 0
KCA2 162325Z 28003KT 20/09 A30 RMK A01 T02000088  RH  048%=      5-min Rain = 0
KCA2 162326Z 28003KT 20/09 A30 RMK A01 T02000089  RH  049%=      5-min Rain = 0
KCA2 162327Z 27003KT 20/09 A30 RMK A01 T02000091  RH  050%=      5-min Rain = 0
KCA2 162328Z 27003KT 20/09 A30 RMK A01 T01990093  RH  050%=      5-min Rain = 0
KCA2 162329Z 27004KT 20/09 A30 RMK A01 T01980093  RH  051%=      5-min Rain = 0
KCA2 162330Z 27004KT 20/10 A30 RMK A01 T01980095  RH  051%=      5-min Rain = 0
KCA2 162331Z 27004KT 20/10 A30 RMK A01 T01970095  RH  052%=      5-min Rain = 0
KCA2 162332Z 28005KT 20/10 A30 RMK A01 T01960095  RH  052%=      5-min Rain = 0
KCA2 162333Z 27005KT 20/09 A30 RMK A01 T01950093  RH  052%=      5-min Rain = 0
KCA2 162334Z 27005KT 20/09 A30 RMK A01 T01950094  RH  052%=      5-min Rain = 0
KCA2 162335Z 27004KT 19/09 A30 RMK A01 T01940093  RH  052%=      5-min Rain = 0
KCA2 162336Z 27005KT 19/09 A30 RMK A01 T01940093  RH  052%=      5-min Rain = 0
KCA2 162337Z 27005KT 19/09 A30 RMK A01 T01930092  RH  052%=      5-min Rain = 0
KCA2 162338Z 27004KT 19/09 A30 RMK A01 T01930092  RH  052%=      5-min Rain = 0
KCA2 162339Z 26004KT 19/09 A30 RMK A01 T01920093  RH  052%=      5-min Rain = 0
KCA2 162340Z 27005KT 19/09 A30 RMK A01 T01920092  RH  052%=      5-min Rain = 0
KCA2 162341Z 27005KT 19/09 A30 RMK A01 T01910091  RH  052%=      5-min Rain = 0
KCA2 162342Z 27005KT 19/09 A30 RMK A01 T01910092  RH  053%=      5-min Rain = 0
KCA2 162343Z 27005KT 19/09 A30 RMK A01 T01900092  RH  053%=      5-min Rain = 0
KCA2 162344Z 27005KT 19/09 A30 RMK A01 T01900092  RH  053%=      5-min Rain = 0
KCA2 162345Z 27005KT 19/09 A30 RMK A01 T01890092  RH  053%=      5-min Rain = 0
KCA2 162346Z 27004KT 19/09 A30 RMK A01 T01890092  RH  053%=      5-min Rain = 0
KCA2 162347Z 27004KT 19/09 A30 RMK A01 T01880092  RH  053%=      5-min Rain = 0
KCA2 162348Z 27005KT 19/09 A30 RMK A01 T01880092  RH  054%=      5-min Rain = 0
KCA2 162349Z 27005KT 19/09 A30 RMK A01 T01880091  RH  053%=      5-min Rain = 0
KCA2 162350Z 27004KT 19/09 A30 RMK A01 T01870091  RH  053%=      5-min Rain = 0
KCA2 162351Z 27004KT 19/09 A30 RMK A01 T01870091  RH  053%=      5-min Rain = 0
KCA2 162352Z 27004KT 19/09 A30 RMK A01 T01870090  RH  053%=      5-min Rain = 0
KCA2 162353Z 27004KT 19/09 A30 RMK A01 T01870091  RH  054%=      5-min Rain = 0
KCA2 162354Z 27004KT 19/09 A30 RMK A01 T01860090  RH  054%=      5-min Rain = 0
KCA2 162355Z 28004KT 19/09 A3001 RMK A01 T01860090  RH  053%=      5-min Rain = 0
KCA2 162356Z 28004KT 19/09 A3001 RMK A01 T01860091  RH  054%=      5-min Rain = 0
KCA2 162357Z 28004KT 19/09 A3001 RMK A01 T01850091  RH  054%=      5-min Rain = 0
KCA2 162358Z 28003KT 18/09 A3001 RMK A01 T01840091  RH  054%=      5-min Rain = 0
KCA2 162359Z 28003KT 18/09 A3001 RMK A01 T01840091  RH  055%=      5-min Rain = 0
KCA2 170000Z 27003KT 18/09 A3001 RMK A01 T01830092  RH  055%=      5-min Rain = 0
KCA2 170001Z 27003KT 18/09 A3001 RMK A01 T01830093  RH  056%=      5-min Rain = 0
KCA2 170002Z 26003KT 18/09 A3001 RMK A01 T01820092  RH  056%=      5-min Rain = 0
KCA2 170003Z 26003KT 18/09 A3001 RMK A01 T01820092  RH  056%=      5-min Rain = 0
KCA2 170004Z 26003KT 18/09 A3001 RMK A01 T01810092  RH  056%=      5-min Rain = 0
KCA2 170005Z 26003KT 18/09 A3001 RMK A01 T01810092  RH  056%=      5-min Rain = 0
KCA2 170006Z 27002KT 18/09 A3001 RMK A01 T01810091  RH  056%=      5-min Rain = 0
KCA2 170007Z 27002KT 18/09 A3001 RMK A01 T01810092  RH  056%=      5-min Rain = 0
KCA2 170008Z 28003KT 18/09 A3001 RMK A01 T01810092  RH  056%=      5-min Rain = 0
KCA2 170009Z 28003KT 18/09 A3001 RMK A01 T01810092  RH  056%=      5-min Rain = 0
KCA2 170010Z 29002KT 18/09 A3001 RMK A01 T01810093  RH  056%=      5-min Rain = 0
KCA2 170011Z 29003KT 18/09 A3001 RMK A01 T01810093  RH  056%=      5-min Rain = 0
KCA2 170012Z 29003KT 18/09 A3001 RMK A01 T01810093  RH  056%=      5-min Rain = 0
KCA2 170013Z 29003KT 18/09 A3001 RMK A01 T01810092  RH  056%=      5-min Rain = 0
KCA2 170014Z 29003KT 18/09 A3001 RMK A01 T01810091  RH  056%=      5-min Rain = 0
KCA2 170015Z 29003KT 18/09 A3001 RMK A01 T01820092  RH  056%=      5-min Rain = 0
KCA2 170016Z 29003KT 18/09 A3001 RMK A01 T01820091  RH  055%=      5-min Rain = 0
KCA2 170017Z 30003KT 18/09 A3002 RMK A01 T01820091  RH  055%=      5-min Rain = 0
KCA2 170018Z 30003KT 18/09 A3002 RMK A01 T01820091  RH  055%=      5-min Rain = 0
KCA2 170019Z 31002KT 18/09 A3002 RMK A01 T01820090  RH  055%=      5-min Rain = 0
KCA2 170020Z 32002KT 18/09 A3002 RMK A01 T01830089  RH  054%=      5-min Rain = 0
KCA2 170021Z 31002KT 18/09 A3002 RMK A01 T01830089  RH  054%=      5-min Rain = 0
KCA2 170022Z 30002KT 18/09 A3002 RMK A01 T01840089  RH  054%=      5-min Rain = 0
KCA2 170023Z 30002KT 18/09 A3001 RMK A01 T01840088  RH  053%=      5-min Rain = 0
KCA2 170024Z 31002KT 19/09 A3001 RMK A01 T01850089  RH  053%=      5-min Rain = 0
KCA2 170025Z 31002KT 19/09 A3001 RMK A01 T01850089  RH  054%=      5-min Rain = 0
KCA2 170026Z 31003KT 19/09 A3001 RMK A01 T01850088  RH  053%=      5-min Rain = 0
KCA2 170027Z 31003KT 19/09 A3001 RMK A01 T01850088  RH  053%=      5-min Rain = 0
KCA2 170028Z 31003KT 19/09 A3001 RMK A01 T01850088  RH  053%=      5-min Rain = 0
KCA2 170029Z 32003KT 19/09 A3001 RMK A01 T01850088  RH  053%=      5-min Rain = 0
KCA2 170030Z 34003KT 19/09 A3001 RMK A01 T01860088  RH  053%=      5-min Rain = 0
KCA2 170031Z 02002KT 19/09 A3001 RMK A01 T01850091  RH  054%=      5-min Rain = 0
KCA2 170032Z 02002KT 18/09 A3001 RMK A01 T01840091  RH  055%=      5-min Rain = 0
KCA2 170033Z 02002KT 18/09 A3001 RMK A01 T01830091  RH  055%=      5-min Rain = 0
KCA2 170034Z 03002KT 18/09 A3001 RMK A01 T01820092  RH  056%=      5-min Rain = 0
KCA2 170035Z 03002KT 18/09 A3001 RMK A01 T01810092  RH  056%=      5-min Rain = 0
KCA2 170036Z 03001KT 18/09 A3001 RMK A01 T01810092  RH  056%=      5-min Rain = 0
KCA2 170037Z 04001KT 18/09 A3001 RMK A01 T01800093  RH  057%=      5-min Rain = 0
KCA2 170038Z 04002KT 18/10 A3001 RMK A01 T01800095  RH  058%=      5-min Rain = 0
KCA2 170039Z 03002KT 18/10 A3001 RMK A01 T01790096  RH  059%=      5-min Rain = 0
KCA2 170040Z 03002KT 18/10 A3001 RMK A01 T01770097  RH  059%=      5-min Rain = 0
KCA2 170041Z 02002KT 18/10 A3001 RMK A01 T01760097  RH  060%=      5-min Rain = 0
KCA2 170042Z 00001KT 18/10 A3001 RMK A01 T01760097  RH  060%=      5-min Rain = 0
KCA2 170043Z 01001KT 18/10 A3001 RMK A01 T01750097  RH  060%=      5-min Rain = 0
KCA2 170044Z 01001KT 17/10 A3001 RMK A01 T01740097  RH  060%=      5-min Rain = 0
KCA2 170045Z 00001KT 17/10 A3001 RMK A01 T01740096  RH  060%=      5-min Rain = 0
KCA2 170046Z 01001KT 17/10 A3001 RMK A01 T01740096  RH  060%=      5-min Rain = 0
KCA2 170047Z 02001KT 17/09 A3001 RMK A01 T01740094  RH  059%=      5-min Rain = 0
KCA2 170048Z 02001KT 17/09 A3001 RMK A01 T01740094  RH  059%=      5-min Rain = 0
KCA2 170049Z 01001KT 17/09 A3001 RMK A01 T01740093  RH  059%=      5-min Rain = 0
KCA2 170050Z 36001KT 18/09 A3001 RMK A01 T01750094  RH  059%=      5-min Rain = 0
KCA2 170051Z 36001KT 18/09 A3001 RMK A01 T01750094  RH  059%=      5-min Rain = 0
KCA2 170052Z 35001KT 18/09 A3001 RMK A01 T01750094  RH  059%=      5-min Rain = 0
KCA2 170053Z 35001KT 18/09 A3001 RMK A01 T01750094  RH  059%=      5-min Rain = 0
KCA2 170054Z 00002KT 18/09 A3001 RMK A01 T01750092  RH  058%=      5-min Rain = 0
KCA2 170055Z 02001KT 18/09 A3001 RMK A01 T01760092  RH  058%=      5-min Rain = 0
KCA2 170056Z 03001KT 18/09 A3001 RMK A01 T01760093  RH  058%=      5-min Rain = 0
KCA2 170057Z 04002KT 18/09 A3001 RMK A01 T01760093  RH  058%=      5-min Rain = 0
KCA2 170058Z 04002KT 18/09 A3001 RMK A01 T01760092  RH  058%=      5-min Rain = 0
KCA2 170059Z 03002KT 18/09 A3002 RMK A01 T01770091  RH  057%=      5-min Rain = 0
KCA2 170100Z 03002KT 18/09 A3002 RMK A01 T01770091  RH  057%=      5-min Rain = 0
KCA2 170101Z 03002KT 18/09 A3002 RMK A01 T01780092  RH  057%=      5-min Rain = 0
KCA2 170102Z 03002KT 18/09 A3002 RMK A01 T01780093  RH  057%=      5-min Rain = 0
KCA2 170103Z 03002KT 18/09 A3002 RMK A01 T01780093  RH  057%=      5-min Rain = 0
KCA2 170104Z 03002KT 18/09 A3002 RMK A01 T01780093  RH  057%=      5-min Rain = 0
KCA2 170105Z 03002KT 18/09 A3002 RMK A01 T01780093  RH  057%=      5-min Rain = 0
KCA2 170106Z 02002KT 18/09 A3002 RMK A01 T01770093  RH  058%=      5-min Rain = 0
KCA2 170107Z 03001KT 18/09 A3002 RMK A01 T01770093  RH  058%=      5-min Rain = 0
KCA2 170108Z 03001KT 18/09 A3002 RMK A01 T01770093  RH  058%=      5-min Rain = 0
KCA2 170109Z 02001KT 18/09 A3002 RMK A01 T01780093  RH  057%=      5-min Rain = 0
KCA2 170110Z 01001KT 18/09 A3002 RMK A01 T01790093  RH  057%=      5-min Rain = 0
KCA2 170111Z 01001KT 18/10 A3002 RMK A01 T01790095  RH  058%=      5-min Rain = 0
KCA2 170112Z 35001KT 18/10 A3002 RMK A01 T01780095  RH  058%=      5-min Rain = 0
KCA2 170113Z 34001KT 18/10 A3002 RMK A01 T01770095  RH  058%=      5-min Rain = 0
KCA2 170114Z 32002KT 18/09 A3002 RMK A01 T01750094  RH  059%=      5-min Rain = 0
KCA2 170115Z 33002KT 17/09 A3002 RMK A01 T01740094  RH  059%=      5-min Rain = 0
KCA2 170116Z 33002KT 17/10 A3002 RMK A01 T01740095  RH  060%=      5-min Rain = 0
KCA2 170117Z 34002KT 17/10 A3002 RMK A01 T01730097  RH  061%=      5-min Rain = 0
KCA2 170118Z 35002KT 17/10 A3002 RMK A01 T01730097  RH  061%=      5-min Rain = 0
KCA2 170119Z 35002KT 17/10 A3002 RMK A01 T01720097  RH  061%=      5-min Rain = 0
KCA2 170120Z 01002KT 17/10 A3002 RMK A01 T01720097  RH  061%=      5-min Rain = 0
KCA2 170121Z 01002KT 17/10 A3002 RMK A01 T01730096  RH  060%=      5-min Rain = 0
KCA2 170122Z 02002KT 17/10 A3002 RMK A01 T01740096  RH  060%=      5-min Rain = 0
KCA2 170123Z 01002KT 18/10 A3002 RMK A01 T01750096  RH  060%=      5-min Rain = 0
KCA2 170124Z 01002KT 18/10 A3002 RMK A01 T01760096  RH  059%=      5-min Rain = 0
KCA2 170125Z 00002KT 18/10 A3002 RMK A01 T01760095  RH  059%=      5-min Rain = 0
KCA2 170126Z 00002KT 18/10 A3002 RMK A01 T01770096  RH  059%=      5-min Rain = 0
KCA2 170127Z 00002KT 18/10 A3002 RMK A01 T01770095  RH  059%=      5-min Rain = 0
KCA2 170128Z 36002KT 18/10 A3002 RMK A01 T01770095  RH  059%=      5-min Rain = 0
KCA2 170129Z 35002KT 18/10 A3002 RMK A01 T01770096  RH  059%=      5-min Rain = 0
KCA2 170130Z 36002KT 18/10 A3002 RMK A01 T01770096  RH  059%=      5-min Rain = 0
KCA2 170131Z 00002KT 18/10 A3002 RMK A01 T01770096  RH  059%=      5-min Rain = 0
KCA2 170132Z 01001KT 18/10 A3002 RMK A01 T01770097  RH  059%=      5-min Rain = 0
KCA2 170133Z 02001KT 18/10 A3002 RMK A01 T01760096  RH  059%=      5-min Rain = 0
KCA2 170134Z 02002KT 18/10 A3003 RMK A01 T01770096  RH  059%=      5-min Rain = 0
KCA2 170135Z 03002KT 18/10 A3003 RMK A01 T01770096  RH  059%=      5-min Rain = 0
KCA2 170136Z 02002KT 18/10 A3003 RMK A01 T01760096  RH  059%=      5-min Rain = 0
KCA2 170137Z 02002KT 18/10 A3003 RMK A01 T01760096  RH  059%=      5-min Rain = 0
KCA2 170138Z 02002KT 18/10 A3003 RMK A01 T01760096  RH  060%=      5-min Rain = 0
KCA2 170139Z 02002KT 18/10 A3003 RMK A01 T01750097  RH  060%=      5-min Rain = 0
KCA2 170140Z 02002KT 17/10 A3003 RMK A01 T01740098  RH  061%=      5-min Rain = 0
KCA2 170141Z 02002KT 17/10 A3003 RMK A01 T01720098  RH  061%=      5-min Rain = 0
KCA2 170142Z 02002KT 17/10 A3003 RMK A01 T01710097  RH  062%=      5-min Rain = 0
KCA2 170143Z 02002KT 17/10 A3003 RMK A01 T01700098  RH  063%=      5-min Rain = 0
KCA2 170144Z 01002KT 17/10 A3003 RMK A01 T01680099  RH  064%=      5-min Rain = 0
KCA2 170145Z 35002KT 17/10 A3003 RMK A01 T01660099  RH  064%=      5-min Rain = 0
KCA2 170146Z 34002KT 17/10 A3003 RMK A01 T01650099  RH  065%=      5-min Rain = 0
KCA2 170147Z 33001KT 16/10 A3003 RMK A01 T01640099  RH  066%=      5-min Rain = 0
KCA2 170148Z 32001KT 16/10 A3003 RMK A01 T01630099  RH  066%=      5-min Rain = 0
KCA2 170149Z 32001KT 16/10 A3003 RMK A01 T01620100  RH  066%=      5-min Rain = 0
KCA2 170150Z 34001KT 16/10 A3003 RMK A01 T01620100  RH  067%=      5-min Rain = 0
KCA2 170151Z 34001KT 16/10 A3003 RMK A01 T01620099  RH  066%=      5-min Rain = 0
KCA2 170152Z 34001KT 16/10 A3003 RMK A01 T01620100  RH  066%=      5-min Rain = 0
KCA2 170153Z 32001KT 16/10 A3003 RMK A01 T01620100  RH  067%=      5-min Rain = 0
KCA2 170154Z 32000KT 16/10 A3003 RMK A01 T01620101  RH  067%=      5-min Rain = 0
KCA2 170155Z 30001KT 16/10 A3003 RMK A01 T01620101  RH  067%=      5-min Rain = 0
KCA2 170156Z 29001KT 16/10 A3003 RMK A01 T01610100  RH  067%=      5-min Rain = 0
KCA2 170157Z 30001KT 16/10 A3003 RMK A01 T01610100  RH  067%=      5-min Rain = 0
KCA2 170158Z 31002KT 16/10 A3003 RMK A01 T01610100  RH  067%=      5-min Rain = 0
KCA2 170159Z 30002KT 16/10 A3003 RMK A01 T01610099  RH  066%=      5-min Rain = 0
KCA2 170200Z 31002KT 16/10 A3003 RMK A01 T01620098  RH  066%=      5-min Rain = 0
KCA2 170201Z 31002KT 16/10 A3003 RMK A01 T01630099  RH  066%=      5-min Rain = 0
KCA2 170202Z 31001KT 16/10 A3002 RMK A01 T01640098  RH  065%=      5-min Rain = 0
KCA2 170203Z 30001KT 16/10 A3002 RMK A01 T01640098  RH  065%=      5-min Rain = 0
KCA2 170204Z 32001KT 16/10 A3002 RMK A01 T01640097  RH  064%=      5-min Rain = 0
KCA2 170205Z 00000KT 16/10 A3002 RMK A01 T01640097  RH  064%=      5-min Rain = 0
KCA2 170206Z 00000KT 17/10 A3002 RMK A01 T01650098  RH  065%=      5-min Rain = 0
KCA2 170207Z 00000KT 17/10 A3002 RMK A01 T01650099  RH  065%=      5-min Rain = 0
KCA2 170208Z 00000KT 16/10 A3002 RMK A01 T01640100  RH  066%=      5-min Rain = 0
KCA2 170209Z 00000KT 16/10 A3002 RMK A01 T01630100  RH  066%=      5-min Rain = 0
KCA2 170210Z 00000KT 16/10 A3002 RMK A01 T01620099  RH  067%=      5-min Rain = 0
KCA2 170211Z 00000KT 16/10 A3002 RMK A01 T01610098  RH  066%=      5-min Rain = 0
KCA2 170212Z 35000KT 16/10 A3002 RMK A01 T01620098  RH  066%=      5-min Rain = 0
KCA2 170213Z 35001KT 16/10 A3002 RMK A01 T01610101  RH  067%=      5-min Rain = 0
KCA2 170214Z 34001KT 16/10 A3003 RMK A01 T01570099  RH  068%=      5-min Rain = 0
KCA2 170215Z 34001KT 15/10 A3003 RMK A01 T01540099  RH  070%=      5-min Rain = 0
KCA2 170216Z 33001KT 15/10 A3003 RMK A01 T01510099  RH  071%=      5-min Rain = 0
KCA2 170217Z 32002KT 15/10 A3003 RMK A01 T01510100  RH  072%=      5-min Rain = 0
KCA2 170218Z 32002KT 15/10 A3003 RMK A01 T01500100  RH  072%=      5-min Rain = 0
KCA2 170219Z 31002KT 15/10 A3003 RMK A01 T01500101  RH  072%=      5-min Rain = 0
KCA2 170220Z 31002KT 15/10 A3003 RMK A01 T01490101  RH  073%=      5-min Rain = 0
KCA2 170221Z 31002KT 15/10 A3003 RMK A01 T01490101  RH  073%=      5-min Rain = 0
KCA2 170222Z 31003KT 15/10 A3003 RMK A01 T01490101  RH  073%=      5-min Rain = 0
KCA2 170223Z 31003KT 15/10 A3003 RMK A01 T01490101  RH  073%=      5-min Rain = 0
KCA2 170224Z 31003KT 15/10 A3003 RMK A01 T01490100  RH  073%=      5-min Rain = 0
KCA2 170225Z 31003KT 15/10 A3003 RMK A01 T01490100  RH  073%=      5-min Rain = 0
KCA2 170226Z 31003KT 15/10 A3003 RMK A01 T01480100  RH  073%=      5-min Rain = 0
KCA2 170227Z 31003KT 15/10 A3003 RMK A01 T01480100  RH  073%=      5-min Rain = 0
KCA2 170228Z 32004KT 15/10 A3003 RMK A01 T01500099  RH  071%=      5-min Rain = 0
KCA2 170229Z 33004KT 15/10 A3003 RMK A01 T01540099  RH  070%=      5-min Rain = 0
KCA2 170230Z 33004KT 16/10 A3003 RMK A01 T01550099  RH  069%=      5-min Rain = 0
KCA2 170231Z 33004KT 16/10 A3003 RMK A01 T01550099  RH  069%=      5-min Rain = 0
KCA2 170232Z 33004KT 16/10 A3003 RMK A01 T01560099  RH  069%=      5-min Rain = 0
KCA2 170233Z 33004KT 16/10 A3003 RMK A01 T01570098  RH  068%=      5-min Rain = 0
KCA2 170234Z 34004KT 16/10 A3003 RMK A01 T01590097  RH  067%=      5-min Rain = 0
KCA2 170235Z 34003KT 16/10 A3003 RMK A01 T01600097  RH  066%=      5-min Rain = 0
KCA2 170236Z 00002KT 16/10 A3003 RMK A01 T01610098  RH  066%=      5-min Rain = 0
KCA2 170237Z 36002KT 16/10 A3003 RMK A01 T01610097  RH  066%=      5-min Rain = 0
KCA2 170238Z 35002KT 16/10 A3003 RMK A01 T01620095  RH  065%=      5-min Rain = 0
KCA2 170239Z 34002KT 16/10 A3003 RMK A01 T01640095  RH  064%=      5-min Rain = 0
KCA2 170240Z 35002KT 17/10 A3003 RMK A01 T01650095  RH  063%=      5-min Rain = 0
KCA2 170241Z 34001KT 17/10 A3003 RMK A01 T01660095  RH  063%=      5-min Rain = 0
KCA2 170242Z 33002KT 17/10 A3003 RMK A01 T01670096  RH  063%=      5-min Rain = 0
KCA2 170243Z 33002KT 17/10 A3003 RMK A01 T01660096  RH  063%=      5-min Rain = 0
KCA2 170244Z 33003KT 16/10 A3003 RMK A01 T01640096  RH  064%=      5-min Rain = 0
KCA2 170245Z 33002KT 16/10 A3003 RMK A01 T01620097  RH  065%=      5-min Rain = 0
KCA2 170246Z 34002KT 16/10 A3003 RMK A01 T01600096  RH  066%=      5-min Rain = 0
KCA2 170247Z 35003KT 16/10 A3003 RMK A01 T01590096  RH  066%=      5-min Rain = 0
KCA2 170248Z 00003KT 16/10 A3003 RMK A01 T01580097  RH  067%=      5-min Rain = 0
KCA2 170249Z 35002KT 16/10 A3003 RMK A01 T01570098  RH  068%=      5-min Rain = 0
KCA2 170250Z 36003KT 16/10 A3003 RMK A01 T01560095  RH  067%=      5-min Rain = 0
KCA2 170251Z 36003KT 16/10 A3003 RMK A01 T01590095  RH  066%=      5-min Rain = 0
KCA2 170252Z 36003KT 16/10 A3003 RMK A01 T01600095  RH  065%=      5-min Rain = 0
KCA2 170253Z 00002KT 16/10 A3003 RMK A01 T01620095  RH  064%=      5-min Rain = 0
KCA2 170254Z 36002KT 16/10 A3003 RMK A01 T01630095  RH  064%=      5-min Rain = 0
KCA2 170255Z 35002KT 16/10 A3003 RMK A01 T01630095  RH  064%=      5-min Rain = 0
KCA2 170256Z 35002KT 16/10 A3003 RMK A01 T01630095  RH  064%=      5-min Rain = 0
KCA2 170257Z 34002KT 16/10 A3003 RMK A01 T01630095  RH  064%=      5-min Rain = 0
KCA2 170258Z 32003KT 16/09 A3004 RMK A01 T01630094  RH  064%=      5-min Rain = 0
KCA2 170259Z 33004KT 16/10 A3004 RMK A01 T01630095  RH  064%=      5-min Rain = 0
KCA2 170300Z 33003KT 16/10 A3003 RMK A01 T01620095  RH  065%=      5-min Rain = 0
KCA2 170301Z 33003KT 16/10 A3003 RMK A01 T01600095  RH  065%=      5-min Rain = 0
KCA2 170302Z 33003KT 16/10 A3003 RMK A01 T01590095  RH  066%=      5-min Rain = 0
KCA2 170303Z 33003KT 16/10 A3003 RMK A01 T01580095  RH  066%=      5-min Rain = 0
KCA2 170304Z 33002KT 16/10 A3003 RMK A01 T01570095  RH  066%=      5-min Rain = 0
KCA2 170305Z 34002KT 16/10 A3003 RMK A01 T01570095  RH  067%=      5-min Rain = 0
KCA2 170306Z 35002KT 16/10 A3003 RMK A01 T01570096  RH  067%=      5-min Rain = 0
KCA2 170307Z 01001KT 16/10 A3003 RMK A01 T01570096  RH  067%=      5-min Rain = 0
KCA2 170308Z 02002KT 16/10 A3003 RMK A01 T01560095  RH  067%=      5-min Rain = 0
KCA2 170309Z 02002KT 16/10 A3003 RMK A01 T01570095  RH  067%=      5-min Rain = 0
KCA2 170310Z 00001KT 16/10 A3003 RMK A01 T01570096  RH  067%=      5-min Rain = 0
KCA2 170311Z 33002KT 16/10 A3003 RMK A01 T01560096  RH  067%=      5-min Rain = 0
KCA2 170312Z 32002KT 16/10 A3003 RMK A01 T01550096  RH  068%=      5-min Rain = 0
KCA2 170313Z 32002KT 15/10 A3003 RMK A01 T01540096  RH  069%=      5-min Rain = 0
KCA2 170314Z 32003KT 15/10 A3003 RMK A01 T01530096  RH  069%=      5-min Rain = 0
KCA2 170315Z 32003KT 15/10 A3003 RMK A01 T01530096  RH  069%=      5-min Rain = 0
KCA2 170316Z 32003KT 15/10 A3003 RMK A01 T01530096  RH  069%=      5-min Rain = 0
KCA2 170317Z 32003KT 15/10 A3003 RMK A01 T01530096  RH  069%=      5-min Rain = 0
KCA2 170318Z 31003KT 15/10 A3004 RMK A01 T01530096  RH  069%=      5-min Rain = 0
KCA2 170319Z 30003KT 15/10 A3004 RMK A01 T01530096  RH  069%=      5-min Rain = 0
KCA2 170320Z 30003KT 15/10 A3004 RMK A01 T01520095  RH  069%=      5-min Rain = 0
KCA2 170321Z 30003KT 15/10 A3004 RMK A01 T01510096  RH  069%=      5-min Rain = 0
KCA2 170322Z 30002KT 15/10 A3004 RMK A01 T01510096  RH  070%=      5-min Rain = 0
KCA2 170323Z 30003KT 15/10 A3004 RMK A01 T01500095  RH  070%=      5-min Rain = 0
KCA2 170324Z 30003KT 15/10 A3004 RMK A01 T01500096  RH  070%=      5-min Rain = 0
KCA2 170325Z 30003KT 15/10 A3004 RMK A01 T01490095  RH  070%=      5-min Rain = 0
KCA2 170326Z 31003KT 15/10 A3004 RMK A01 T01490096  RH  070%=      5-min Rain = 0
KCA2 170327Z 31002KT 15/10 A3004 RMK A01 T01490096  RH  071%=      5-min Rain = 0
KCA2 170328Z 30002KT 15/10 A3004 RMK A01 T01490096  RH  071%=      5-min Rain = 0
KCA2 170329Z 30002KT 15/10 A3004 RMK A01 T01490096  RH  071%=      5-min Rain = 0
KCA2 170330Z 29002KT 15/10 A3004 RMK A01 T01490095  RH  070%=      5-min Rain = 0
KCA2 170331Z 29002KT 15/10 A3004 RMK A01 T01490096  RH  070%=      5-min Rain = 0
KCA2 170332Z 29002KT 15/10 A3004 RMK A01 T01490097  RH  071%=      5-min Rain = 0
KCA2 170333Z 28001KT 15/10 A3004 RMK A01 T01480096  RH  071%=      5-min Rain = 0
KCA2 170334Z 28001KT 15/10 A3004 RMK A01 T01470096  RH  071%=      5-min Rain = 0
KCA2 170335Z 29001KT 15/10 A3004 RMK A01 T01470096  RH  071%=      5-min Rain = 0
KCA2 170336Z 29001KT 15/10 A3004 RMK A01 T01460096  RH  072%=      5-min Rain = 0
KCA2 170337Z 29001KT 15/10 A3004 RMK A01 T01460096  RH  072%=      5-min Rain = 0
KCA2 170338Z 29003KT 15/10 A3004 RMK A01 T01460096  RH  072%=      5-min Rain = 0
KCA2 170339Z 29003KT 15/10 A3004 RMK A01 T01450096  RH  072%=      5-min Rain = 0
KCA2 170340Z 29003KT 15/10 A3004 RMK A01 T01460096  RH  072%=      5-min Rain = 0
KCA2 170341Z 29003KT 15/10 A3004 RMK A01 T01470096  RH  071%=      5-min Rain = 0
KCA2 170342Z 29003KT 15/10 A3004 RMK A01 T01480096  RH  071%=      5-min Rain = 0
KCA2 170343Z 30003KT 15/10 A3004 RMK A01 T01480095  RH  071%=      5-min Rain = 0
KCA2 170344Z 32002KT 15/10 A3004 RMK A01 T01480095  RH  071%=      5-min Rain = 0
KCA2 170345Z 34002KT 15/10 A3004 RMK A01 T01480095  RH  071%=      5-min Rain = 0
KCA2 170346Z 00002KT 15/10 A3004 RMK A01 T01480095  RH  071%=      5-min Rain = 0
KCA2 170347Z 36003KT 15/10 A3004 RMK A01 T01480095  RH  071%=      5-min Rain = 0
KCA2 170348Z 35003KT 15/10 A3004 RMK A01 T01490095  RH  070%=      5-min Rain = 0
KCA2 170349Z 35003KT 15/10 A3004 RMK A01 T01500095  RH  070%=      5-min Rain = 0
KCA2 170350Z 34002KT 15/10 A3004 RMK A01 T01510095  RH  069%=      5-min Rain = 0
KCA2 170351Z 34003KT 15/10 A3004 RMK A01 T01520095  RH  069%=      5-min Rain = 0
KCA2 170352Z 34003KT 15/10 A3004 RMK A01 T01510095  RH  069%=      5-min Rain = 0
KCA2 170353Z 33004KT 15/10 A3004 RMK A01 T01500095  RH  069%=      5-min Rain = 0
KCA2 170354Z 33003KT 15/10 A3004 RMK A01 T01510095  RH  069%=      5-min Rain = 0
KCA2 170355Z 33003KT 15/10 A3004 RMK A01 T01500095  RH  069%=      5-min Rain = 0
KCA2 170356Z 32003KT 15/10 A3004 RMK A01 T01500095  RH  069%=      5-min Rain = 0
KCA2 170357Z 32003KT 15/10 A3004 RMK A01 T01510095  RH  069%=      5-min Rain = 0
KCA2 170358Z 32003KT 15/10 A3004 RMK A01 T01500095  RH  069%=      5-min Rain = 0
KCA2 170359Z 31002KT 15/10 A3004 RMK A01 T01500095  RH  069%=      5-min Rain = 0
KCA2 170400Z 30002KT 15/10 A3004 RMK A01 T01500095  RH  069%=      5-min Rain = 0
KCA2 170401Z 30002KT 15/10 A3004 RMK A01 T01490095  RH  070%=      5-min Rain = 0
KCA2 170402Z 28001KT 15/10 A3004 RMK A01 T01480095  RH  070%=      5-min Rain = 0
KCA2 170403Z 28002KT 15/09 A3004 RMK A01 T01480094  RH  070%=      5-min Rain = 0
KCA2 170404Z 28002KT 15/10 A3004 RMK A01 T01480095  RH  070%=      5-min Rain = 0
KCA2 170405Z 27002KT 15/10 A3004 RMK A01 T01470095  RH  071%=      5-min Rain = 0
KCA2 170406Z 27002KT 15/09 A3004 RMK A01 T01460094  RH  071%=      5-min Rain = 0
KCA2 170407Z 27002KT 15/09 A3004 RMK A01 T01460094  RH  071%=      5-min Rain = 0
KCA2 170408Z 27002KT 15/10 A3004 RMK A01 T01450095  RH  072%=      5-min Rain = 0
KCA2 170409Z 28002KT 14/09 A3004 RMK A01 T01440094  RH  072%=      5-min Rain = 0
KCA2 170410Z 28002KT 14/09 A3004 RMK A01 T01430094  RH  073%=      5-min Rain = 0
KCA2 170411Z 29002KT 14/10 A3004 RMK A01 T01420095  RH  073%=      5-min Rain = 0
KCA2 170412Z 30002KT 14/10 A3004 RMK A01 T01420095  RH  073%=      5-min Rain = 0
KCA2 170413Z 30001KT 14/09 A3004 RMK A01 T01410094  RH  073%=      5-min Rain = 0
KCA2 170414Z 30002KT 14/10 A3003 RMK A01 T01420095  RH  073%=      5-min Rain = 0
KCA2 170415Z 31002KT 14/09 A3003 RMK A01 T01430094  RH  073%=      5-min Rain = 0
KCA2 170416Z 31001KT 14/09 A3003 RMK A01 T01440094  RH  072%=      5-min Rain = 0
KCA2 170417Z 32001KT 15/10 A3003 RMK A01 T01450095  RH  072%=      5-min Rain = 0
KCA2 170418Z 32001KT 15/09 A3003 RMK A01 T01460094  RH  071%=      5-min Rain = 0
KCA2 170419Z 31001KT 15/09 A3003 RMK A01 T01460094  RH  071%=      5-min Rain = 0
KCA2 170420Z 31002KT 15/10 A3003 RMK A01 T01460095  RH  071%=      5-min Rain = 0
KCA2 170421Z 31002KT 15/09 A3003 RMK A01 T01450094  RH  071%=      5-min Rain = 0
KCA2 170422Z 31002KT 15/09 A3003 RMK A01 T01450094  RH  071%=      5-min Rain = 0
KCA2 170423Z 33002KT 15/09 A3003 RMK A01 T01460094  RH  071%=      5-min Rain = 0
KCA2 170424Z 34002KT 15/10 A3003 RMK A01 T01460095  RH  071%=      5-min Rain = 0
KCA2 170425Z 34002KT 15/10 A3003 RMK A01 T01460095  RH  072%=      5-min Rain = 0
KCA2 170426Z 34002KT 15/10 A3003 RMK A01 T01450095  RH  072%=      5-min Rain = 0
KCA2 170427Z 34002KT 15/10 A3003 RMK A01 T01450095  RH  072%=      5-min Rain = 0
KCA2 170428Z 33002KT 14/10 A3003 RMK A01 T01440095  RH  072%=      5-min Rain = 0
KCA2 170429Z 32002KT 14/10 A3003 RMK A01 T01440096  RH  073%=      5-min Rain = 0
KCA2 170430Z 32003KT 14/10 A3003 RMK A01 T01430095  RH  073%=      5-min Rain = 0
KCA2 170431Z 32003KT 14/10 A3003 RMK A01 T01420095  RH  073%=      5-min Rain = 0
KCA2 170432Z 32004KT 14/10 A3004 RMK A01 T01420096  RH  073%=      5-min Rain = 0
KCA2 170433Z 33003KT 14/10 A3004 RMK A01 T01420096  RH  074%=      5-min Rain = 0
KCA2 170434Z 33003KT 14/10 A3004 RMK A01 T01420095  RH  074%=      5-min Rain = 0
KCA2 170435Z 32003KT 14/10 A3004 RMK A01 T01420096  RH  073%=      5-min Rain = 0
KCA2 170436Z 31003KT 14/10 A3004 RMK A01 T01420095  RH  073%=      5-min Rain = 0
KCA2 170437Z 32003KT 14/10 A3004 RMK A01 T01420095  RH  073%=      5-min Rain = 0
KCA2 170438Z 32002KT 14/10 A3004 RMK A01 T01420095  RH  073%=      5-min Rain = 0
KCA2 170439Z 33002KT 14/10 A3004 RMK A01 T01420095  RH  073%=      5-min Rain = 0
KCA2 170440Z 33002KT 14/10 A3004 RMK A01 T01420095  RH  073%=      5-min Rain = 0
KCA2 170441Z 32002KT 14/10 A3003 RMK A01 T01420095  RH  073%=      5-min Rain = 0
KCA2 170442Z 31002KT 14/10 A3003 RMK A01 T01420095  RH  073%=      5-min Rain = 0
KCA2 170443Z 32001KT 14/10 A3003 RMK A01 T01420095  RH  073%=      5-min Rain = 0
KCA2 170444Z 31001KT 14/10 A3004 RMK A01 T01420095  RH  073%=      5-min Rain = 0
KCA2 170445Z 32001KT 14/09 A3004 RMK A01 T01420094  RH  073%=      5-min Rain = 0
KCA2 170446Z 32001KT 14/10 A3004 RMK A01 T01420095  RH  073%=      5-min Rain = 0
KCA2 170447Z 33001KT 14/09 A3004 RMK A01 T01420094  RH  073%=      5-min Rain = 0
KCA2 170448Z 32001KT 14/10 A3003 RMK A01 T01420095  RH  073%=      5-min Rain = 0
KCA2 170449Z 32001KT 14/10 A3003 RMK A01 T01420095  RH  073%=      5-min Rain = 0
KCA2 170450Z 32001KT 14/09 A3003 RMK A01 T01420094  RH  073%=      5-min Rain = 0
KCA2 170451Z 32001KT 14/09 A3003 RMK A01 T01420094  RH  073%=      5-min Rain = 0
KCA2 170452Z 32000KT 14/09 A3003 RMK A01 T01420094  RH  073%=      5-min Rain = 0
KCA2 170453Z 32000KT 14/10 A3003 RMK A01 T01420097  RH  075%=      5-min Rain = 0
KCA2 170454Z 31001KT 14/10 A3003 RMK A01 T01400096  RH  075%=      5-min Rain = 0
KCA2 170455Z 32001KT 14/10 A3003 RMK A01 T01390095  RH  075%=      5-min Rain = 0
KCA2 170456Z 33001KT 14/10 A3003 RMK A01 T01360095  RH  076%=      5-min Rain = 0
KCA2 170457Z 33000KT 14/09 A3003 RMK A01 T01350094  RH  076%=      5-min Rain = 0
KCA2 170458Z 32000KT 14/10 A3003 RMK A01 T01350095  RH  077%=      5-min Rain = 0
KCA2 170459Z 31000KT 14/09 A3003 RMK A01 T01350094  RH  076%=      5-min Rain = 0
KCA2 170500Z 31001KT 14/10 A3003 RMK A01 T01350095  RH  077%=      5-min Rain = 0
KCA2 170501Z 28000KT 14/10 A3003 RMK A01 T01350095  RH  077%=      5-min Rain = 0
KCA2 170502Z 00000KT 13/10 A3003 RMK A01 T01340095  RH  077%=      5-min Rain = 0
KCA2 170503Z 00000KT 13/10 A3003 RMK A01 T01330095  RH  078%=      5-min Rain = 0
KCA2 170504Z 00000KT 13/10 A3003 RMK A01 T01320095  RH  078%=      5-min Rain = 0
KCA2 170505Z 00000KT 13/10 A3003 RMK A01 T01320095  RH  079%=      5-min Rain = 0
KCA2 170506Z 00000KT 13/10 A3003 RMK A01 T01310095  RH  079%=      5-min Rain = 0
KCA2 170507Z 00000KT 13/10 A3003 RMK A01 T01300095  RH  079%=      5-min Rain = 0
KCA2 170508Z 00000KT 13/10 A3003 RMK A01 T01290095  RH  080%=      5-min Rain = 0
KCA2 170509Z 00000KT 13/10 A3003 RMK A01 T01290095  RH  080%=      5-min Rain = 0
KCA2 170510Z 00000KT 13/09 A3003 RMK A01 T01290094  RH  079%=      5-min Rain = 0
KCA2 170511Z 00000KT 13/09 A3003 RMK A01 T01300094  RH  079%=      5-min Rain = 0
KCA2 170512Z 00000KT 13/10 A3003 RMK A01 T01300095  RH  079%=      5-min Rain = 0
KCA2 170513Z 00000KT 13/10 A3003 RMK A01 T01300095  RH  079%=      5-min Rain = 0
KCA2 170514Z 00000KT 13/10 A3003 RMK A01 T01300095  RH  079%=      5-min Rain = 0
KCA2 170515Z 05001KT 13/10 A3003 RMK A01 T01290095  RH  080%=      5-min Rain = 0
KCA2 170516Z 05001KT 13/09 A3003 RMK A01 T01290094  RH  079%=      5-min Rain = 0
KCA2 170517Z 06000KT 13/10 A3003 RMK A01 T01300095  RH  079%=      5-min Rain = 0
KCA2 170518Z 00000KT 13/10 A3003 RMK A01 T01300095  RH  079%=      5-min Rain = 0
KCA2 170519Z 33000KT 13/09 A3003 RMK A01 T01270094  RH  080%=      5-min Rain = 0
KCA2 170520Z 33001KT 13/09 A3003 RMK A01 T01260094  RH  081%=      5-min Rain = 0
KCA2 170521Z 32001KT 13/09 A3003 RMK A01 T01250094  RH  082%=      5-min Rain = 0
KCA2 170522Z 31001KT 12/09 A3004 RMK A01 T01240094  RH  082%=      5-min Rain = 0
KCA2 170523Z 32001KT 12/09 A3004 RMK A01 T01230094  RH  082%=      5-min Rain = 0
KCA2 170524Z 31001KT 12/09 A3004 RMK A01 T01230094  RH  082%=      5-min Rain = 0
KCA2 170525Z 32001KT 12/09 A3004 RMK A01 T01230094  RH  082%=      5-min Rain = 0
KCA2 170526Z 34001KT 12/09 A3004 RMK A01 T01240094  RH  082%=      5-min Rain = 0
KCA2 170527Z 33002KT 13/10 A3004 RMK A01 T01260095  RH  081%=      5-min Rain = 0
KCA2 170528Z 32002KT 13/10 A3004 RMK A01 T01290096  RH  080%=      5-min Rain = 0
KCA2 170529Z 32001KT 13/10 A3004 RMK A01 T01300095  RH  080%=      5-min Rain = 0
KCA2 170530Z 31001KT 13/10 A3004 RMK A01 T01300095  RH  079%=      5-min Rain = 0
KCA2 170531Z 31001KT 13/10 A3004 RMK A01 T01300095  RH  079%=      5-min Rain = 0
KCA2 170532Z 32001KT 13/10 A3004 RMK A01 T01300095  RH  079%=      5-min Rain = 0
KCA2 170533Z 31001KT 13/10 A3004 RMK A01 T01300095  RH  079%=      5-min Rain = 0
KCA2 170534Z 32001KT 13/10 A3004 RMK A01 T01300095  RH  079%=      5-min Rain = 0
KCA2 170535Z 30001KT 13/09 A3004 RMK A01 T01300094  RH  079%=      5-min Rain = 0
KCA2 170536Z 31002KT 13/09 A3004 RMK A01 T01300094  RH  079%=      5-min Rain = 0
KCA2 170537Z 31002KT 13/09 A3004 RMK A01 T01300094  RH  079%=      5-min Rain = 0
KCA2 170538Z 32002KT 13/09 A3004 RMK A01 T01280093  RH  079%=      5-min Rain = 0
KCA2 170539Z 32002KT 13/09 A3004 RMK A01 T01270093  RH  080%=      5-min Rain = 0
KCA2 170540Z 33002KT 13/09 A3004 RMK A01 T01260093  RH  080%=      5-min Rain = 0
KCA2 170541Z 33002KT 13/09 A3004 RMK A01 T01250093  RH  080%=      5-min Rain = 0
KCA2 170542Z 32001KT 13/09 A3004 RMK A01 T01250093  RH  081%=      5-min Rain = 0
KCA2 170543Z 33002KT 13/09 A3004 RMK A01 T01250093  RH  081%=      5-min Rain = 0
KCA2 170544Z 34001KT 13/09 A3004 RMK A01 T01260093  RH  080%=      5-min Rain = 0
KCA2 170545Z 34002KT 13/09 A3004 RMK A01 T01260093  RH  080%=      5-min Rain = 0
KCA2 170546Z 35003KT 13/09 A3004 RMK A01 T01270093  RH  080%=      5-min Rain = 0
KCA2 170547Z 34003KT 13/09 A3004 RMK A01 T01280093  RH  079%=      5-min Rain = 0
KCA2 170548Z 34003KT 13/09 A3004 RMK A01 T01280093  RH  079%=      5-min Rain = 0
KCA2 170549Z 34003KT 13/09 A3004 RMK A01 T01280092  RH  079%=      5-min Rain = 0
KCA2 170550Z 34002KT 13/09 A3004 RMK A01 T01280092  RH  079%=      5-min Rain = 0
KCA2 170551Z 35003KT 13/09 A3004 RMK A01 T01280092  RH  079%=      5-min Rain = 0
KCA2 170552Z 33003KT 13/09 A3004 RMK A01 T01280092  RH  079%=      5-min Rain = 0
KCA2 170553Z 34004KT 13/09 A3004 RMK A01 T01280092  RH  079%=      5-min Rain = 0
KCA2 170554Z 32003KT 13/09 A3004 RMK A01 T01280092  RH  079%=      5-min Rain = 0
KCA2 170555Z 33003KT 13/09 A3004 RMK A01 T01280092  RH  078%=      5-min Rain = 0
KCA2 170556Z 33003KT 13/09 A3004 RMK A01 T01290092  RH  078%=      5-min Rain = 0
KCA2 170557Z 33003KT 13/09 A3004 RMK A01 T01280092  RH  078%=      5-min Rain = 0
KCA2 170558Z 32003KT 13/09 A3004 RMK A01 T01280091  RH  078%=      5-min Rain = 0
KCA2 170559Z 33003KT 13/09 A3004 RMK A01 T01280092  RH  079%=      5-min Rain = 0

Page generated in 0.1214 seconds.